SR-99 : Fresno River Atmospheric Data: 06/24/2022 Summary  Detailed Graphs  Station List

  Temperature     Wind Precipitation Visibility
Timestamp Air Wet
Bulb
Dew-
point
24-hr
Max
24-hr
Min
Relative
Humidity
Atmospheric
Pressure
Avg
Speed
Avg
Dir
Spot
Speed
Spot
Dir
Max
Speed
Max
Dir
  Rate Situation Start End 1 hr 3 hr 6 hr 12 hr 24 hr   Situation
Date Time °F °F °F °F °F % in Hg mph ° mph ° mph ° Y/N in/hr text Date Time Date Time in in in in in mi text
06/24/2022 12:00 AM 77.18 65.12 58.46 100.04 70.52 52.0 Not Reported 5.37 W 4.92 W 8.28 W x 0.000 Unknown 06/23/2022 04:51 PM 06/23/2022 04:51 PM 0.000 0.000 0.000 0.000 0.000 5.96 Unknown
06/24/2022 12:01 AM 77.00 65.12 58.28 100.04 70.52 52.0 Not Reported 5.37 W 4.70 NW 8.28 W x 0.000 Unknown 06/23/2022 04:51 PM 06/23/2022 04:51 PM 0.000 0.000 0.000 0.000 0.000 6.19 Unknown
06/24/2022 12:02 AM 77.36 65.30 58.64 100.04 70.52 52.0 Not Reported 5.37 W 6.49 W 8.28 W x 0.000 Unknown 06/23/2022 05:02 PM 06/23/2022 05:02 PM 0.000 0.000 0.000 0.000 0.000 6.35 Unknown
06/24/2022 12:03 AM 77.18 65.30 58.64 100.04 70.52 52.0 Not Reported 5.37 W 6.04 W 8.28 W x 0.000 Unknown 06/23/2022 05:02 PM 06/23/2022 05:02 PM 0.000 0.000 0.000 0.000 0.000 5.83 Unknown
06/24/2022 12:04 AM 77.18 65.48 58.64 100.04 70.52 52.0 Not Reported 5.37 W 4.03 W 8.28 W x 0.000 Unknown 06/23/2022 05:04 PM 06/23/2022 05:04 PM 0.000 0.000 0.000 0.000 0.000 5.98 Unknown
06/24/2022 12:05 AM 77.00 65.12 58.46 100.04 70.52 52.0 Not Reported 5.37 W 5.14 W 8.28 W x 0.000 Unknown 06/23/2022 05:04 PM 06/23/2022 05:04 PM 0.000 0.000 0.000 0.000 0.000 5.88 Unknown
06/24/2022 12:06 AM 77.00 65.30 58.64 100.04 70.52 53.0 Not Reported 4.92 W 5.14 W 8.50 W x 0.000 Unknown 06/23/2022 05:06 PM 06/23/2022 05:06 PM 0.000 0.000 0.000 0.000 0.000 6.28 Unknown
06/24/2022 12:07 AM 77.00 65.12 58.46 100.04 70.52 52.0 Not Reported 4.92 W 5.59 W 8.50 W x 0.000 Unknown 06/23/2022 05:06 PM 06/23/2022 05:06 PM 0.000 0.000 0.000 0.000 0.000 6.13 Unknown
06/24/2022 12:08 AM 77.00 65.30 58.64 100.04 70.52 53.0 Not Reported 4.92 W 3.80 W 8.50 W x 0.000 Unknown 06/23/2022 05:08 PM 06/23/2022 05:08 PM 0.000 0.000 0.000 0.000 0.000 6.00 Unknown
06/24/2022 12:09 AM 77.00 65.12 58.64 100.04 70.52 53.0 Not Reported 4.92 W 6.71 W 8.50 W x 0.000 Unknown 06/23/2022 05:08 PM 06/23/2022 05:08 PM 0.000 0.000 0.000 0.000 0.000 5.91 Unknown
06/24/2022 12:10 AM 76.82 65.30 58.64 100.04 70.52 53.0 Not Reported 4.92 W 3.58 W 8.50 W x 0.000 Unknown 06/23/2022 05:08 PM 06/23/2022 05:08 PM 0.000 0.000 0.000 0.000 0.000 6.03 Unknown
06/24/2022 12:11 AM 76.82 65.12 58.64 100.04 70.52 53.0 Not Reported 4.92 W 5.82 W 8.50 W x 0.000 Unknown 06/23/2022 05:08 PM 06/23/2022 05:08 PM 0.000 0.000 0.000 0.000 0.000 6.06 Unknown
06/24/2022 12:12 AM 76.82 65.12 58.46 100.04 70.52 53.0 Not Reported 4.92 W 4.92 W 8.50 W Yes 0.000 Unknown 06/23/2022 05:12 PM   0.000 0.000 0.000 0.000 0.000 6.02 Unknown
06/24/2022 12:13 AM 76.64 64.94 58.28 100.04 70.52 52.0 Not Reported 4.92 W 4.70 NW 8.50 W Yes 0.000 Unknown 06/23/2022 05:12 PM 06/23/2022 05:12 PM 0.000 0.000 0.000 0.000 0.000 5.98 Unknown
06/24/2022 12:14 AM 76.64 64.94 58.28 100.04 70.52 53.0 Not Reported 4.92 W 6.49 W 8.50 W x 0.000 Unknown 06/23/2022 05:12 PM 06/23/2022 05:12 PM 0.000 0.000 0.000 0.000 0.000 5.87 Unknown
06/24/2022 12:15 AM 76.64 64.94 58.28 100.04 70.52 53.0 Not Reported 4.92 W 9.40 W 8.50 W x 0.000 Unknown 06/23/2022 05:14 PM 06/23/2022 05:14 PM 0.000 0.000 0.000 0.000 0.000 6.06 Unknown
06/24/2022 12:16 AM 76.82 64.76 58.28 100.04 70.52 52.0 Not Reported 4.92 W 4.03 W 8.50 W x 0.000 Unknown 06/23/2022 05:14 PM 06/23/2022 05:14 PM 0.000 0.000 0.000 0.000 0.000 5.81 Unknown
06/24/2022 12:17 AM 76.64 64.94 58.46 100.04 70.52 53.0 Not Reported 4.92 W 6.71 W 8.50 W Yes 0.000 Unknown 06/23/2022 05:17 PM 06/23/2022 05:17 PM 0.000 0.000 0.000 0.000 0.000 6.12 Unknown
06/24/2022 12:18 AM 76.64 64.94 58.28 100.04 70.52 53.0 Not Reported 4.92 W 5.37 NW 8.50 W x 0.000 Unknown 06/23/2022 05:17 PM 06/23/2022 05:17 PM 0.000 0.000 0.000 0.000 0.000 5.93 Unknown
06/24/2022 12:19 AM 76.64 64.94 58.10 100.04 70.52 52.0 Not Reported 4.92 W 3.80 W 8.50 W x 0.000 Unknown 06/23/2022 05:17 PM 06/23/2022 05:17 PM 0.000 0.000 0.000 0.000 0.000 6.04 Unknown
06/24/2022 12:20 AM 76.46 65.30 58.64 100.04 70.52 53.0 Not Reported 5.37 W 6.04 W 9.84 W x 0.000 Unknown 06/23/2022 05:19 PM 06/23/2022 05:19 PM 0.000 0.000 0.000 0.000 0.000 5.93 Unknown
06/24/2022 12:21 AM 76.46 64.94 58.46 100.04 70.52 53.0 Not Reported 5.37 W 7.16 W 9.84 W x 0.000 Unknown 06/23/2022 05:19 PM 06/23/2022 05:19 PM 0.000 0.000 0.000 0.000 0.000 5.91 Unknown
06/24/2022 12:22 AM 76.46 64.94 58.64 100.04 70.52 53.0 Not Reported 5.37 W 4.70 W 9.84 W x 0.000 Unknown 06/23/2022 05:21 PM 06/23/2022 05:21 PM 0.000 0.000 0.000 0.000 0.000 5.93 Unknown
06/24/2022 12:23 AM 76.46 64.94 58.46 100.04 70.52 54.0 Not Reported 5.37 W 4.25 W 9.84 W x 0.000 Unknown 06/23/2022 05:23 PM 06/23/2022 05:23 PM 0.000 0.000 0.000 0.000 0.000 5.98 Unknown
06/24/2022 12:24 AM 76.10 64.76 58.28 100.04 70.52 53.0 Not Reported 5.37 W 4.03 NW 9.84 W x 0.000 Unknown 06/23/2022 05:23 PM 06/23/2022 05:23 PM 0.000 0.000 0.000 0.000 0.000 6.05 Unknown
06/24/2022 12:25 AM 76.28 64.76 57.92 100.04 70.52 53.0 Not Reported 5.37 W 6.71 W 9.84 W x 0.000 Unknown 06/23/2022 05:23 PM 06/23/2022 05:23 PM 0.000 0.000 0.000 0.000 0.000 5.98 Unknown
06/24/2022 12:26 AM 76.10 64.76 58.28 100.04 70.52 53.0 Not Reported 5.37 W 6.49 W 9.84 W x 0.000 Unknown 06/23/2022 05:23 PM 06/23/2022 05:23 PM 0.000 0.000 0.000 0.000 0.000 5.93 Unknown
06/24/2022 12:27 AM 76.10 64.94 58.46 100.04 70.52 54.0 Not Reported 5.37 W 4.47 W 9.84 W x 0.000 Unknown 06/23/2022 05:27 PM 06/23/2022 05:27 PM 0.000 0.000 0.000 0.000 0.000 6.11 Unknown
06/24/2022 12:28 AM 76.10 64.58 58.10 100.04 70.52 53.0 Not Reported 5.37 W 3.80 W 9.84 W x 0.000 Unknown 06/23/2022 05:27 PM 06/23/2022 05:27 PM 0.000 0.000 0.000 0.000 0.000 5.94 Unknown
06/24/2022 12:29 AM 76.10 64.76 58.28 100.04 70.52 54.0 Not Reported 5.37 W 4.03 W 9.84 W x 0.000 Unknown 06/23/2022 05:27 PM 06/23/2022 05:27 PM 0.000 0.000 0.000 0.000 0.000 6.30 Unknown
06/24/2022 12:30 AM 75.92 64.58 58.10 100.04 70.52 54.0 Not Reported 5.37 W 4.25 W 9.84 W x 0.000 Unknown 06/23/2022 05:27 PM 06/23/2022 05:27 PM 0.000 0.000 0.000 0.000 0.000 6.04 Unknown
06/24/2022 12:31 AM 75.92 64.58 58.10 100.04 70.52 53.0 Not Reported 5.37 W 6.04 W 9.84 W x 0.000 Unknown 06/23/2022 05:27 PM 06/23/2022 05:27 PM 0.000 0.000 0.000 0.000 0.000 6.10 Unknown
06/24/2022 12:32 AM 75.92 64.76 58.28 100.04 70.52 54.0 Not Reported 5.37 W 4.70 W 9.84 W x 0.000 Unknown 06/23/2022 05:32 PM 06/23/2022 05:32 PM 0.000 0.000 0.000 0.000 0.000 6.01 Unknown
06/24/2022 12:33 AM 75.74 64.58 58.10 100.04 70.52 54.0 Not Reported 5.37 W 4.47 W 9.84 W x 0.000 Unknown 06/23/2022 05:32 PM 06/23/2022 05:32 PM 0.000 0.000 0.000 0.000 0.000 6.02 Unknown
06/24/2022 12:34 AM 75.92 64.58 57.92 100.04 70.52 53.0 Not Reported 4.92 W 5.37 W 9.62 W x 0.000 Unknown 06/23/2022 05:34 PM 06/23/2022 05:34 PM 0.000 0.000 0.000 0.000 0.000 6.16 Unknown
06/24/2022 12:35 AM 75.92 64.58 58.10 100.04 70.52 53.0 Not Reported 4.92 W 3.80 W 9.62 W x 0.000 Unknown 06/23/2022 05:34 PM 06/23/2022 05:34 PM 0.000 0.000 0.000 0.000 0.000 6.15 Unknown
06/24/2022 12:36 AM 75.92 64.58 57.92 100.04 70.52 53.0 Not Reported 4.92 W 2.68 W 9.62 W x 0.000 Unknown 06/23/2022 05:36 PM 06/23/2022 05:36 PM 0.000 0.000 0.000 0.000 0.000 5.98 Unknown
06/24/2022 12:37 AM 75.74 64.58 57.92 100.04 70.52 53.0 Not Reported 4.92 W 2.91 W 9.62 W x 0.000 Unknown 06/23/2022 05:36 PM 06/23/2022 05:36 PM 0.000 0.000 0.000 0.000 0.000 6.33 Unknown
06/24/2022 12:38 AM 75.74 64.58 58.10 100.04 70.52 54.0 Not Reported 4.92 W 5.37 W 9.62 W x 0.000 Unknown 06/23/2022 05:38 PM 06/23/2022 05:38 PM 0.000 0.000 0.000 0.000 0.000 5.87 Unknown
06/24/2022 12:39 AM 75.92 64.40 57.92 100.04 70.52 53.0 Not Reported 4.92 W 5.14 W 9.62 W x 0.000 Unknown 06/23/2022 05:38 PM 06/23/2022 05:38 PM 0.000 0.000 0.000 0.000 0.000 6.03 Unknown
06/24/2022 12:40 AM 75.92 64.58 58.28 100.04 70.52 54.0 Not Reported 4.92 W 2.46 W 9.62 W x 0.000 Unknown 06/23/2022 05:40 PM 06/23/2022 05:40 PM 0.000 0.000 0.000 0.000 0.000 6.01 Unknown
06/24/2022 12:41 AM 75.74 64.58 58.28 100.04 70.52 54.0 Not Reported 4.92 W 3.58 W 9.62 W x 0.000 Unknown 06/23/2022 05:40 PM 06/23/2022 05:40 PM 0.000 0.000 0.000 0.000 0.000 6.02 Unknown
06/24/2022 12:42 AM 75.74 64.58 58.28 100.04 70.52 54.0 Not Reported 4.92 W 3.13 W 9.62 W x 0.000 Unknown 06/23/2022 05:42 PM 06/23/2022 05:42 PM 0.000 0.000 0.000 0.000 0.000 5.96 Unknown
06/24/2022 12:43 AM 75.74 64.40 58.28 100.04 70.52 54.0 Not Reported 4.92 W 3.80 W 9.62 W x 0.000 Unknown 06/23/2022 05:42 PM 06/23/2022 05:42 PM 0.000 0.000 0.000 0.000 0.000 5.96 Unknown
06/24/2022 12:44 AM 75.56 64.58 58.46 100.04 70.52 55.0 Not Reported 4.92 W 4.70 W 9.62 W x 0.000 Unknown 06/23/2022 05:42 PM 06/23/2022 05:42 PM 0.000 0.000 0.000 0.000 0.000 5.85 Unknown
06/24/2022 12:45 AM 75.20 64.58 58.10 100.04 70.52 55.0 Not Reported 4.92 W 4.47 W 9.62 W x 0.000 Unknown 06/23/2022 05:42 PM 06/23/2022 05:42 PM 0.000 0.000 0.000 0.000 0.000 6.09 Unknown
06/24/2022 12:46 AM 75.38 64.40 58.10 100.04 70.52 55.0 Not Reported 4.92 W 4.47 W 9.62 W x 0.000 Unknown 06/23/2022 05:46 PM 06/23/2022 05:46 PM 0.000 0.000 0.000 0.000 0.000 5.98 Unknown
06/24/2022 12:47 AM 75.20 64.40 58.28 100.04 70.52 55.0 Not Reported 4.92 W 3.13 W 9.62 W Yes 0.000 Unknown 06/23/2022 05:46 PM 06/23/2022 05:46 PM 0.000 0.000 0.000 0.000 0.000 6.24 Unknown
06/24/2022 12:48 AM 75.02 64.58 58.64 100.04 70.52 56.0 Not Reported 4.03 W 4.25 W 7.83 W x 0.000 Unknown 06/23/2022 05:46 PM 06/23/2022 05:46 PM 0.000 0.000 0.000 0.000 0.000 5.80 Unknown
06/24/2022 12:49 AM 74.84 64.22 57.92 100.04 70.52 55.0 Not Reported 4.03 W 4.25 W 7.83 W Yes 0.000 Unknown 06/23/2022 05:49 PM 06/23/2022 05:49 PM 0.000 0.000 0.000 0.000 0.000 5.84 Unknown
06/24/2022 12:50 AM 74.84 64.04 58.10 100.04 70.52 55.0 Not Reported 4.03 W 3.80 NW 7.83 W x 0.000 Unknown 06/23/2022 05:49 PM 06/23/2022 05:49 PM 0.000 0.000 0.000 0.000 0.000 5.65 Unknown
06/24/2022 12:51 AM 74.66 64.40 58.28 100.04 70.52 56.0 Not Reported 4.03 W 2.91 W 7.83 W x 0.000 Unknown 06/23/2022 05:49 PM 06/23/2022 05:49 PM 0.000 0.000 0.000 0.000 0.000 5.83 Unknown
06/24/2022 12:52 AM 74.66 64.40 58.46 100.04 70.52 56.0 Not Reported 4.03 W 2.68 W 7.83 W x 0.000 Unknown 06/23/2022 05:49 PM 06/23/2022 05:49 PM 0.000 0.000 0.000 0.000 0.000 5.94 Unknown
06/24/2022 12:53 AM 74.66 64.22 58.46 100.04 70.52 57.0 Not Reported 4.03 W 3.58 W 7.83 W Yes 0.000 Unknown 06/23/2022 05:53 PM 06/23/2022 05:53 PM 0.000 0.000 0.000 0.000 0.000 5.89 Unknown
06/24/2022 12:54 AM 74.30 64.40 58.82 100.04 70.52 58.0 Not Reported 4.03 W 3.80 W 7.83 W x 0.000 Unknown 06/23/2022 05:53 PM 06/23/2022 05:53 PM 0.000 0.000 0.000 0.000 0.000 5.83 Unknown
06/24/2022 12:55 AM 74.30 64.40 58.82 100.04 70.52 58.0 Not Reported 4.03 W 4.47 W 7.83 W Yes 0.000 Unknown 06/23/2022 05:55 PM 06/23/2022 05:55 PM 0.000 0.000 0.000 0.000 0.000 5.79 Unknown
06/24/2022 12:56 AM 74.30 64.04 58.64 100.04 70.52 57.0 Not Reported 4.03 W 3.58 W 7.83 W Yes 0.000 Unknown 06/23/2022 05:55 PM 06/23/2022 05:55 PM 0.000 0.000 0.000 0.000 0.000 5.98 Unknown
06/24/2022 12:57 AM 74.12 64.40 58.82 100.04 70.52 58.0 Not Reported 4.03 W 3.80 W 7.83 W x 0.000 Unknown 06/23/2022 05:57 PM 06/23/2022 05:57 PM 0.000 0.000 0.000 0.000 0.000 5.92 Unknown
06/24/2022 12:58 AM 73.94 64.22 58.82 100.04 70.52 59.0 Not Reported 4.03 W 3.13 W 7.83 W x 0.000 Unknown 06/23/2022 05:57 PM 06/23/2022 05:57 PM 0.000 0.000 0.000 0.000 0.000 5.85 Unknown
06/24/2022 12:59 AM 73.76 64.40 59.00 100.04 70.52 59.0 Not Reported 4.03 W 4.47 SW 7.83 W x 0.000 Unknown 06/23/2022 05:57 PM 06/23/2022 05:57 PM 0.000 0.000 0.000 0.000 0.000 5.71 Unknown
06/24/2022 01:00 AM 73.58 64.22 59.00 100.04 70.52 60.0 Not Reported 4.03 W 4.25 W 7.83 W x 0.000 Unknown 06/23/2022 05:59 PM 06/23/2022 05:59 PM 0.000 0.000 0.000 0.000 0.000 5.85 Unknown
06/24/2022 01:01 AM 73.58 64.22 59.18 100.04 70.52 60.0 Not Reported 4.03 W 5.14 SW 7.83 W x 0.000 Unknown 06/23/2022 05:59 PM 06/23/2022 05:59 PM 0.000 0.000 0.000 0.000 0.000 5.65 Unknown
06/24/2022 01:02 AM 73.40 64.22 59.18 100.04 70.52 61.0 Not Reported 3.80 W 4.47 W 6.93 W x 0.000 Unknown 06/23/2022 05:59 PM 06/23/2022 05:59 PM 0.000 0.000 0.000 0.000 0.000 5.58 Unknown
06/24/2022 01:03 AM 73.22 64.04 59.00 100.04 70.52 61.0 Not Reported 3.80 W 2.91 SW 6.93 W x 0.000 Unknown 06/23/2022 05:59 PM 06/23/2022 05:59 PM 0.000 0.000 0.000 0.000 0.000 5.75 Unknown
06/24/2022 01:04 AM 73.04 64.04 59.00 100.04 70.52 61.0 Not Reported 3.80 W 3.13 SW 6.93 W x 0.000 Unknown 06/23/2022 05:59 PM 06/23/2022 05:59 PM 0.000 0.000 0.000 0.000 0.000 5.74 Unknown
06/24/2022 01:05 AM 72.86 64.04 58.82 100.04 70.52 61.0 Not Reported 3.80 W 2.46 SW 6.93 W x 0.000 Unknown 06/23/2022 05:59 PM 06/23/2022 05:59 PM 0.000 0.000 0.000 0.000 0.000 5.66 Unknown
06/24/2022 01:06 AM 72.86 64.04 59.00 100.04 70.52 61.0 Not Reported 3.80 W 2.24 SW 6.93 W x 0.000 Unknown 06/23/2022 05:59 PM 06/23/2022 05:59 PM 0.000 0.000 0.000 0.000 0.000 5.53 Unknown
06/24/2022 01:07 AM 72.68 63.86 58.82 100.04 70.52 61.0 Not Reported 3.80 W 2.24 SW 6.93 W x 0.000 Unknown 06/23/2022 05:59 PM 06/23/2022 05:59 PM 0.000 0.000 0.000 0.000 0.000 5.48 Unknown
06/24/2022 01:08 AM 72.50 63.86 58.64 100.04 70.52 61.0 Not Reported 3.80 W 3.36 W 6.93 W x 0.000 Unknown 06/23/2022 06:08 PM 06/23/2022 06:08 PM 0.000 0.000 0.000 0.000 0.000 5.48 Unknown
06/24/2022 01:09 AM 72.50 63.86 58.64 100.04 70.52 61.0 Not Reported 3.80 W 3.80 SW 6.93 W x 0.000 Unknown 06/23/2022 06:08 PM 06/23/2022 06:08 PM 0.000 0.000 0.000 0.000 0.000 5.32 Unknown
06/24/2022 01:10 AM 72.50 63.86 58.82 100.04 70.52 61.0 Not Reported 3.80 W 3.36 SW 6.93 W x 0.000 Unknown 06/23/2022 06:10 PM 06/23/2022 06:10 PM 0.000 0.000 0.000 0.000 0.000 5.65 Unknown
06/24/2022 01:11 AM 72.68 63.68 58.64 100.04 70.52 61.0 Not Reported 3.80 W 2.68 SW 6.93 W x 0.000 Unknown 06/23/2022 06:10 PM 06/23/2022 06:10 PM 0.000 0.000 0.000 0.000 0.000 5.63 Unknown
06/24/2022 01:12 AM 72.50 63.68 58.46 100.04 70.52 61.0 Not Reported 3.80 W 3.36 SW 6.93 W x 0.000 Unknown 06/23/2022 06:10 PM 06/23/2022 06:10 PM 0.000 0.000 0.000 0.000 0.000 5.54 Unknown
06/24/2022 01:13 AM 72.32 63.68 58.64 100.04 70.52 62.0 Not Reported 3.80 W 2.68 SW 6.93 W x 0.000 Unknown 06/23/2022 06:12 PM 06/23/2022 06:12 PM 0.000 0.000 0.000 0.000 0.000 5.48 Unknown
06/24/2022 01:14 AM 72.32 63.68 58.64 100.04 70.52 62.0 Not Reported 3.80 W 2.46 W 6.93 W x 0.000 Unknown 06/23/2022 06:12 PM 06/23/2022 06:12 PM 0.000 0.000 0.000 0.000 0.000 5.63 Unknown
06/24/2022 01:15 AM 72.32 63.50 58.64 100.04 70.52 61.0 Not Reported 3.80 W 3.36 W 6.93 W x 0.000 Unknown 06/23/2022 06:12 PM 06/23/2022 06:12 PM 0.000 0.000 0.000 0.000 0.000 5.32 Unknown
06/24/2022 01:16 AM 72.14 63.50 58.46 100.04 70.52 62.0 Not Reported 3.58 W 4.03 W 6.71 W x 0.000 Unknown 06/23/2022 06:14 PM 06/23/2022 06:14 PM 0.000 0.000 0.000 0.000 0.000 5.48 Unknown
06/24/2022 01:17 AM 72.14 63.50 58.28 100.04 70.52 61.0 Not Reported 3.58 W 2.46 W 6.71 W x 0.000 Unknown 06/23/2022 06:14 PM 06/23/2022 06:14 PM 0.000 0.000 0.000 0.000 0.000 5.72 Unknown
06/24/2022 01:18 AM 72.14 63.50 58.64 100.04 70.52 62.0 Not Reported 3.58 W 3.36 SW 6.71 W x 0.000 Unknown 06/23/2022 06:16 PM 06/23/2022 06:18 PM 0.000 0.000 0.000 0.000 0.000 5.52 Unknown
06/24/2022 01:19 AM 72.14 63.50 58.46 100.04 70.52 62.0 Not Reported 3.58 W 3.36 SW 6.71 W Yes 0.000 Unknown 06/23/2022 06:18 PM 06/23/2022 06:18 PM 0.000 0.000 0.000 0.000 0.000 5.45 Unknown
06/24/2022 01:20 AM 71.96 63.32 58.46 100.04 70.52 62.0 Not Reported 3.58 W 2.46 SW 6.71 W Yes 0.000 Unknown 06/23/2022 06:18 PM 06/23/2022 06:18 PM 0.000 0.000 0.000 0.000 0.000 5.18 Unknown
06/24/2022 01:21 AM 71.96 63.32 58.46 100.04 70.52 62.0 Not Reported 3.58 W 3.80 W 6.71 W Yes 0.000 Unknown 06/23/2022 06:21 PM 06/23/2022 06:21 PM 0.000 0.000 0.000 0.000 0.000 5.38 Unknown
06/24/2022 01:22 AM 71.78 63.32 58.46 100.04 70.52 62.0 Not Reported 3.58 W 3.36 W 6.71 W Yes 0.000 Unknown 06/23/2022 06:21 PM 06/23/2022 06:21 PM 0.000 0.000 0.000 0.000 0.000 5.35 Unknown
06/24/2022 01:23 AM 71.60 63.50 58.46 100.04 70.52 63.0 Not Reported 3.58 W 2.68 W 6.71 W x 0.000 Unknown 06/23/2022 06:23 PM 06/23/2022 06:23 PM 0.000 0.000 0.000 0.000 0.000 5.36 Unknown
06/24/2022 01:24 AM 71.60 63.14 58.28 100.04 70.52 62.0 Not Reported 3.58 W 3.58 W 6.71 W x 0.000 Unknown 06/23/2022 06:23 PM 06/23/2022 06:23 PM 0.000 0.000 0.000 0.000 0.000 5.37 Unknown
06/24/2022 01:25 AM 71.60 63.14 58.28 100.04 70.52 62.0 Not Reported 3.58 W 3.36 W 6.71 W Yes 0.000 Unknown 06/23/2022 06:25 PM 06/23/2022 06:25 PM 0.000 0.000 0.000 0.000 0.000 5.47 Unknown
06/24/2022 01:26 AM 71.78 62.96 57.92 100.04 70.52 61.0 Not Reported 3.58 W 1.57 W 6.71 W x 0.000 Unknown 06/23/2022 06:25 PM 06/23/2022 06:25 PM 0.000 0.000 0.000 0.000 0.000 5.47 Unknown
06/24/2022 01:27 AM 71.96 63.14 57.74 100.04 70.52 60.0 Not Reported 3.58 W 4.03 W 6.71 W Yes 0.000 Unknown 06/23/2022 06:27 PM   0.000 0.000 0.000 0.000 0.000 5.71 Unknown
06/24/2022 01:28 AM 71.96 63.14 57.92 100.04 70.52 61.0 Not Reported 3.58 W 1.57 W 6.71 W x 0.000 Unknown 06/23/2022 06:27 PM 06/23/2022 06:27 PM 0.000 0.000 0.000 0.000 0.000 5.63 Unknown
06/24/2022 01:29 AM 71.96 63.14 57.74 100.04 70.52 60.0 Not Reported 3.58 W 4.25 W 6.71 W x 0.000 Unknown 06/23/2022 06:27 PM 06/23/2022 06:27 PM 0.000 0.000 0.000 0.000 0.000 5.40 Unknown
06/24/2022 01:30 AM 72.14 63.14 57.74 100.04 70.52 60.0 Not Reported 3.58 W 3.80 W 5.82 W x 0.000 Unknown 06/23/2022 06:29 PM 06/23/2022 06:29 PM 0.000 0.000 0.000 0.000 0.000 5.28 Unknown
06/24/2022 01:31 AM 72.32 62.96 57.20 100.04 70.52 59.0 Not Reported 3.58 W 4.03 W 5.82 W Yes 0.000 Unknown 06/23/2022 06:31 PM 06/23/2022 06:31 PM 0.000 0.000 0.000 0.000 0.000 5.71 Unknown
06/24/2022 01:32 AM 72.68 62.78 57.20 100.04 70.52 58.0 Not Reported 3.58 W 4.25 W 5.82 W Yes 0.000 Unknown 06/23/2022 06:31 PM 06/23/2022 06:31 PM 0.000 0.000 0.000 0.000 0.000 5.57 Unknown
06/24/2022 01:33 AM 72.68 62.96 57.02 100.04 70.52 57.0 Not Reported 3.58 W 3.36 W 5.82 W x 0.000 Unknown 06/23/2022 06:31 PM 06/23/2022 06:31 PM 0.000 0.000 0.000 0.000 0.000 5.47 Unknown
06/24/2022 01:34 AM 72.86 62.78 56.84 100.04 70.52 56.0 Not Reported 3.58 W 3.58 W 5.82 W x 0.000 Unknown 06/23/2022 06:31 PM 06/23/2022 06:31 PM 0.000 0.000 0.000 0.000 0.000 5.43 Unknown
06/24/2022 01:35 AM 73.04 62.96 56.84 100.04 70.52 56.0 Not Reported 3.58 W 4.92 W 5.82 W Yes 0.000 Unknown 06/23/2022 06:36 PM   0.000 0.000 0.000 0.000 0.000 5.72 Unknown
06/24/2022 01:36 AM 73.22 62.78 56.66 100.04 70.52 56.0 Not Reported 3.58 W 6.04 W 5.82 W x 0.000 Unknown 06/23/2022 06:36 PM 06/23/2022 06:36 PM 0.000 0.000 0.000 0.000 0.000 5.53 Unknown
06/24/2022 01:37 AM 73.22 62.78 56.66 100.04 70.52 56.0 Not Reported 3.58 W 5.37 NW 5.82 W Yes 0.000 Unknown 06/23/2022 06:36 PM 06/23/2022 06:36 PM 0.000 0.000 0.000 0.000 0.000 5.33 Unknown
06/24/2022 01:38 AM 73.22 62.78 56.48 100.04 70.52 55.0 Not Reported 3.58 W 4.92 W 5.82 W x 0.000 Unknown 06/23/2022 06:36 PM 06/23/2022 06:38 PM 0.000 0.000 0.000 0.000 0.000 5.44 Unknown
06/24/2022 01:39 AM 73.40 62.96 56.84 100.04 70.52 55.0 Not Reported 3.58 W 3.13 W 5.82 W x 0.000 Unknown 06/23/2022 06:38 PM 06/23/2022 06:38 PM 0.000 0.000 0.000 0.000 0.000 5.35 Unknown
06/24/2022 01:40 AM 73.40 63.14 56.84 100.04 70.52 56.0 Not Reported 3.58 W 3.80 NW 5.82 W x 0.000 Unknown 06/23/2022 06:38 PM 06/23/2022 06:38 PM 0.000 0.000 0.000 0.000 0.000 5.67 Unknown
06/24/2022 01:41 AM 73.40 62.96 56.84 100.04 70.52 56.0 Not Reported 3.58 W 2.68 W 5.82 W x 0.000 Unknown 06/23/2022 06:40 PM 06/23/2022 06:40 PM 0.000 0.000 0.000 0.000 0.000 5.33 Unknown
06/24/2022 01:42 AM 73.40 62.96 56.84 100.04 70.52 56.0 Not Reported 3.58 W 3.36 W 5.82 W Yes 0.000 Unknown 06/23/2022 06:42 PM 06/23/2022 06:42 PM 0.000 0.000 0.000 0.000 0.000 5.39 Unknown
06/24/2022 01:43 AM 73.40 63.14 56.66 100.04 70.52 56.0 Not Reported 3.58 W 4.25 NW 5.82 W x 0.000 Unknown 06/23/2022 06:42 PM 06/23/2022 06:42 PM 0.000 0.000 0.000 0.000 0.000 5.57 Unknown
06/24/2022 01:44 AM 73.22 62.96 56.48 100.04 70.52 55.0 Not Reported 4.03 W 4.47 W 7.61 W x 0.000 Unknown 06/23/2022 06:44 PM 06/23/2022 06:44 PM 0.000 0.000 0.000 0.000 0.000 5.38 Unknown
06/24/2022 01:45 AM 73.40 62.96 56.66 100.04 70.52 56.0 Not Reported 4.03 W 3.13 NW 7.61 W Yes 0.000 Unknown 06/23/2022 06:44 PM 06/23/2022 06:44 PM 0.000 0.000 0.000 0.000 0.000 5.69 Unknown
06/24/2022 01:46 AM 73.22 62.96 57.02 100.04 70.52 56.0 Not Reported 4.03 W 5.82 W 7.61 W x 0.000 Unknown 06/23/2022 06:44 PM 06/23/2022 06:44 PM 0.000 0.000 0.000 0.000 0.000 5.51 Unknown
06/24/2022 01:47 AM 73.04 62.96 56.84 100.04 70.52 56.0 Not Reported 4.03 W 3.80 W 7.61 W x 0.000 Unknown 06/23/2022 06:44 PM 06/23/2022 06:44 PM 0.000 0.000 0.000 0.000 0.000 5.04 Unknown
06/24/2022 01:48 AM 73.04 62.96 56.84 100.04 70.52 56.0 Not Reported 4.03 W 5.82 W 7.61 W x 0.000 Unknown 06/23/2022 06:44 PM 06/23/2022 06:44 PM 0.000 0.000 0.000 0.000 0.000 5.49 Unknown
06/24/2022 01:49 AM 72.86 62.96 56.84 100.04 70.52 57.0 Not Reported 4.03 W 4.92 W 7.61 W x 0.000 Unknown 06/23/2022 06:44 PM 06/23/2022 06:44 PM 0.000 0.000 0.000 0.000 0.000 5.36 Unknown
06/24/2022 01:50 AM 72.86 62.78 57.02 100.04 70.52 57.0 Not Reported 4.03 W 4.92 W 7.61 W x 0.000 Unknown 06/23/2022 06:50 PM 06/23/2022 06:50 PM 0.000 0.000 0.000 0.000 0.000 5.49 Unknown
06/24/2022 01:51 AM 72.68 62.78 57.02 100.04 70.52 57.0 Not Reported 4.03 W 4.25 W 7.61 W x 0.000 Unknown 06/23/2022 06:50 PM 06/23/2022 06:50 PM 0.000 0.000 0.000 0.000 0.000 5.81 Unknown
06/24/2022 01:52 AM 72.68 62.96 57.02 100.04 70.52 57.0 Not Reported 4.03 W 5.14 W 7.61 W x 0.000 Unknown 06/23/2022 06:50 PM 06/23/2022 06:50 PM 0.000 0.000 0.000 0.000 0.000 5.37 Unknown
06/24/2022 01:53 AM 72.68 62.78 57.02 100.04 70.52 57.0 Not Reported 4.03 W 3.58 W 7.61 W x 0.000 Unknown 06/23/2022 06:50 PM 06/23/2022 06:50 PM 0.000 0.000 0.000 0.000 0.000 5.60 Unknown
06/24/2022 01:54 AM 72.50 62.78 56.84 100.04 70.52 58.0 Not Reported 4.03 W 3.58 W 7.61 W x 0.000 Unknown 06/23/2022 06:53 PM 06/23/2022 06:53 PM 0.000 0.000 0.000 0.000 0.000 5.41 Unknown
06/24/2022 01:55 AM 72.50 62.78 56.84 100.04 70.52 57.0 Not Reported 4.03 W 4.03 W 7.61 W x 0.000 Unknown 06/23/2022 06:55 PM 06/23/2022 06:55 PM 0.000 0.000 0.000 0.000 0.000 5.53 Unknown
06/24/2022 01:56 AM 72.50 62.78 57.02 100.04 70.52 58.0 Not Reported 4.03 W 2.46 W 7.61 W x 0.000 Unknown 06/23/2022 06:55 PM 06/23/2022 06:55 PM 0.000 0.000 0.000 0.000 0.000 5.39 Unknown
06/24/2022 01:57 AM 72.14 62.60 56.66 100.04 70.52 57.0 Not Reported 4.03 W 2.46 W 7.61 W x 0.000 Unknown 06/23/2022 06:57 PM 06/23/2022 06:57 PM 0.000 0.000 0.000 0.000 0.000 5.68 Unknown
06/24/2022 01:58 AM 72.32 62.78 57.02 100.04 70.52 58.0 Not Reported 4.25 W 3.36 W 6.93 W x 0.000 Unknown 06/23/2022 06:57 PM 06/23/2022 06:57 PM 0.000 0.000 0.000 0.000 0.000 5.58 Unknown
06/24/2022 01:59 AM 72.32 62.42 56.84 100.04 70.52 57.0 Not Reported 4.25 W 3.58 W 6.93 W x 0.000 Unknown 06/23/2022 06:59 PM 06/23/2022 06:59 PM 0.000 0.000 0.000 0.000 0.000 5.65 Unknown
06/24/2022 02:00 AM 72.14 62.60 56.66 100.04 70.52 58.0 Not Reported 4.25 W 3.13 W 6.93 W Yes 0.000 Unknown 06/23/2022 06:59 PM 06/23/2022 06:59 PM 0.000 0.000 0.000 0.000 0.000 5.55 Unknown
06/24/2022 02:01 AM 72.14 62.42 56.48 100.04 70.52 57.0 Not Reported 4.25 W 3.13 W 6.93 W x 0.000 Unknown 06/23/2022 06:59 PM 06/23/2022 06:59 PM 0.000 0.000 0.000 0.000 0.000 5.61 Unknown
06/24/2022 02:02 AM 72.14 62.42 56.48 100.04 70.52 57.0 Not Reported 4.25 W 3.13 SW 6.93 W x 0.000 Unknown 06/23/2022 06:59 PM 06/23/2022 06:59 PM 0.000 0.000 0.000 0.000 0.000 5.52 Unknown
06/24/2022 02:03 AM 71.96 62.42 56.48 100.04 70.52 58.0 Not Reported 4.25 W 3.36 W 6.93 W x 0.000 Unknown 06/23/2022 07:01 PM 06/23/2022 07:03 PM 0.000 0.000 0.000 0.000 0.000 5.79 Unknown
06/24/2022 02:04 AM 72.14 62.42 56.84 100.04 70.52 58.0 Not Reported 4.25 W 2.01 W 6.93 W x 0.000 Unknown 06/23/2022 07:03 PM 06/23/2022 07:03 PM 0.000 0.000 0.000 0.000 0.000 5.75 Unknown
06/24/2022 02:05 AM 71.96 62.42 56.66 100.04 70.52 58.0 Not Reported 4.25 W 3.13 W 6.93 W x 0.000 Unknown 06/23/2022 07:05 PM 06/23/2022 07:05 PM 0.000 0.000 0.000 0.000 0.000 5.61 Unknown
06/24/2022 02:06 AM 71.78 62.24 56.66 100.04 70.52 58.0 Not Reported 4.25 W 2.24 W 6.93 W x 0.000 Unknown 06/23/2022 07:05 PM 06/23/2022 07:05 PM 0.000 0.000 0.000 0.000 0.000 5.72 Unknown
06/24/2022 02:07 AM 71.60 62.42 56.66 100.04 70.52 59.0 Not Reported 4.25 W 2.68 W 6.93 W Yes 0.000 Unknown 06/23/2022 07:08 PM   0.000 0.000 0.000 0.000 0.000 5.92 Unknown
06/24/2022 02:08 AM 71.60 62.24 56.66 100.04 70.52 59.0 Not Reported 4.25 W 1.12 W 6.93 W x 0.000 Unknown 06/23/2022 07:08 PM 06/23/2022 07:08 PM 0.000 0.000 0.000 0.000 0.000 5.90 Unknown
06/24/2022 02:09 AM 71.60 62.06 56.48 100.04 70.52 58.0 Not Reported 4.25 W 2.01 W 6.93 W x 0.000 Unknown 06/23/2022 07:08 PM 06/23/2022 07:08 PM 0.000 0.000 0.000 0.000 0.000 5.70 Unknown
06/24/2022 02:10 AM 71.42 62.24 56.30 100.04 70.52 58.0 Not Reported 4.25 W 1.34 W 6.93 W Yes 0.000 Unknown 06/23/2022 07:10 PM 06/23/2022 07:10 PM 0.000 0.000 0.000 0.000 0.000 5.56 Unknown
06/24/2022 02:11 AM 71.42 62.06 56.12 100.04 70.52 58.0 Not Reported 4.25 W 1.79 W 6.93 W Yes 0.000 Unknown 06/23/2022 07:10 PM 06/23/2022 07:10 PM 0.000 0.000 0.000 0.000 0.000 5.77 Unknown
06/24/2022 02:12 AM 71.42 62.06 56.30 100.04 70.52 58.0 Not Reported 2.46 W 2.46 W 4.47 W x 0.000 Unknown 06/23/2022 07:12 PM 06/23/2022 07:12 PM 0.000 0.000 0.000 0.000 0.000 6.02 Unknown
06/24/2022 02:13 AM 71.42 62.06 56.30 100.04 70.52 58.0 Not Reported 2.46 W 1.79 W 4.47 W x 0.000 Unknown 06/23/2022 07:12 PM 06/23/2022 07:12 PM 0.000 0.000 0.000 0.000 0.000 5.70 Unknown
06/24/2022 02:14 AM 71.24 61.88 56.12 100.04 70.52 58.0 Not Reported 2.46 W 2.01 W 4.47 W Yes 0.000 Unknown 06/23/2022 07:14 PM   0.000 0.000 0.000 0.000 0.000 5.70 Unknown
06/24/2022 02:15 AM 71.24 61.88 56.12 100.04 70.52 58.0 Not Reported 2.46 W 1.79 W 4.47 W x 0.000 Unknown 06/23/2022 07:14 PM 06/23/2022 07:14 PM 0.000 0.000 0.000 0.000 0.000 5.87 Unknown
06/24/2022 02:16 AM 71.24 61.88 56.12 100.04 70.52 58.0 Not Reported 2.46 W 1.57 W 4.47 W x 0.000 Unknown 06/23/2022 07:14 PM 06/23/2022 07:14 PM 0.000 0.000 0.000 0.000 0.000 5.80 Unknown
06/24/2022 02:17 AM 71.24 61.88 55.94 100.04 70.52 58.0 Not Reported 2.46 W 3.36 NW 4.47 W x 0.000 Unknown 06/23/2022 07:14 PM 06/23/2022 07:14 PM 0.000 0.000 0.000 0.000 0.000 6.01 Unknown
06/24/2022 02:18 AM 71.24 61.88 56.12 100.04 70.52 58.0 Not Reported 2.46 W 1.57 W 4.47 W x 0.000 Unknown 06/23/2022 07:14 PM 06/23/2022 07:14 PM 0.000 0.000 0.000 0.000 0.000 6.15 Unknown
06/24/2022 02:19 AM 71.42 61.70 55.76 100.04 70.52 57.0 Not Reported 2.46 W 4.03 W 4.47 W x 0.000 Unknown 06/23/2022 07:18 PM 06/23/2022 07:18 PM 0.000 0.000 0.000 0.000 0.000 6.07 Unknown
06/24/2022 02:20 AM 71.60 61.52 55.40 100.04 70.52 56.0 Not Reported 2.46 W 2.01 W 4.47 W Yes 0.000 Unknown 06/23/2022 07:20 PM 06/23/2022 07:20 PM 0.000 0.000 0.000 0.000 0.000 6.17 Unknown
06/24/2022 02:21 AM 71.60 61.70 55.22 100.04 70.52 56.0 Not Reported 2.46 W 3.36 W 4.47 W x 0.000 Unknown 06/23/2022 07:20 PM 06/23/2022 07:20 PM 0.000 0.000 0.000 0.000 0.000 6.03 Unknown
06/24/2022 02:22 AM 71.96 61.52 55.04 100.04 70.52 55.0 Not Reported 2.46 W 4.25 W 4.47 W x 0.000 Unknown 06/23/2022 07:20 PM 06/23/2022 07:20 PM 0.000 0.000 0.000 0.000 0.000 6.08 Unknown
06/24/2022 02:23 AM 71.96 61.70 55.22 100.04 70.52 55.0 Not Reported 2.46 W 4.25 W 4.47 W Yes 0.000 Unknown 06/23/2022 07:22 PM 06/23/2022 07:22 PM 0.000 0.000 0.000 0.000 0.000 5.85 Unknown
06/24/2022 02:24 AM 71.96 61.70 55.04 100.04 70.52 55.0 Not Reported 2.46 W 3.58 W 4.47 W x 0.000 Unknown 06/23/2022 07:22 PM 06/23/2022 07:22 PM 0.000 0.000 0.000 0.000 0.000 6.28 Unknown
06/24/2022 02:25 AM 72.14 62.06 55.58 100.04 70.52 56.0 Not Reported 2.46 W 4.25 W 4.47 W x 0.000 Unknown 06/23/2022 07:22 PM 06/23/2022 07:22 PM 0.000 0.000 0.000 0.000 0.000 5.75 Unknown
06/24/2022 02:26 AM 72.14 61.88 55.58 100.04 70.52 55.0 Not Reported 2.91 W 2.24 W 6.04 W x 0.000 Unknown 06/23/2022 07:25 PM 06/23/2022 07:25 PM 0.000 0.000 0.000 0.000 0.000 6.29 Unknown
06/24/2022 02:27 AM 71.96 61.88 55.58 100.04 70.52 56.0 Not Reported 2.91 W 3.13 W 6.04 W Yes 0.000 Unknown 06/23/2022 07:27 PM 06/23/2022 07:27 PM 0.000 0.000 0.000 0.000 0.000 5.81 Unknown
06/24/2022 02:28 AM 71.96 62.06 55.76 100.04 70.52 56.0 Not Reported 2.91 W 3.80 W 6.04 W x 0.000 Unknown 06/23/2022 07:27 PM 06/23/2022 07:27 PM 0.000 0.000 0.000 0.000 0.000 6.08 Unknown
06/24/2022 02:29 AM 71.96 62.06 55.76 100.04 70.52 56.0 Not Reported 2.91 W 4.03 W 6.04 W x 0.000 Unknown 06/23/2022 07:29 PM 06/23/2022 07:29 PM 0.000 0.000 0.000 0.000 0.000 6.13 Unknown
06/24/2022 02:30 AM 71.78 61.88 55.76 100.04 70.52 57.0 Not Reported 2.91 W 4.03 W 6.04 W x 0.000 Unknown 06/23/2022 07:29 PM 06/23/2022 07:29 PM 0.000 0.000 0.000 0.000 0.000 6.04 Unknown
06/24/2022 02:31 AM 71.78 61.70 55.58 100.04 70.52 56.0 Not Reported 2.91 W 4.03 W 6.04 W Yes 0.000 Unknown 06/23/2022 07:31 PM   0.000 0.000 0.000 0.000 0.000 6.48 Unknown
06/24/2022 02:32 AM 71.60 61.52 55.22 100.04 70.52 56.0 Not Reported 2.91 W 4.92 W 6.04 W x 0.000 Unknown 06/23/2022 07:31 PM 06/23/2022 07:31 PM 0.000 0.000 0.000 0.000 0.000 6.24 Unknown
06/24/2022 02:33 AM 71.60 61.52 55.22 100.04 70.52 56.0 Not Reported 2.91 W 5.37 W 6.04 W x 0.000 Unknown 06/23/2022 07:33 PM 06/23/2022 07:33 PM 0.000 0.000 0.000 0.000 0.000 6.03 Unknown
06/24/2022 02:34 AM 71.78 61.70 55.04 100.04 70.52 55.0 Not Reported 2.91 W 4.70 W 6.04 W x 0.000 Unknown 06/23/2022 07:33 PM 06/23/2022 07:33 PM 0.000 0.000 0.000 0.000 0.000 6.47 Unknown
06/24/2022 02:35 AM 71.78 61.52 55.04 100.04 70.52 55.0 Not Reported 2.91 W 4.47 W 6.04 W x 0.000 Unknown 06/23/2022 07:33 PM 06/23/2022 07:35 PM 0.000 0.000 0.000 0.000 0.000 6.22 Unknown
06/24/2022 02:36 AM 71.78 61.52 55.22 100.04 70.52 55.0 Not Reported 2.91 W 3.80 W 6.04 W Yes 0.000 Unknown 06/23/2022 07:35 PM 06/23/2022 07:35 PM 0.000 0.000 0.000 0.000 0.000 6.24 Unknown
06/24/2022 02:37 AM 71.96 61.52 55.22 100.04 70.52 55.0 Not Reported 2.91 W 2.91 W 6.04 W Yes 0.000 Unknown 06/23/2022 07:37 PM   0.000 0.000 0.000 0.000 0.000 6.30 Unknown
06/24/2022 02:38 AM 71.78 61.52 55.04 100.04 70.52 55.0 Not Reported 2.91 W 4.70 W 6.04 W x 0.000 Unknown 06/23/2022 07:37 PM 06/23/2022 07:37 PM 0.000 0.000 0.000 0.000 0.000 6.41 Unknown
06/24/2022 02:39 AM 71.96 61.52 55.04 100.04 70.52 55.0 Not Reported 2.91 W 4.25 W 6.04 W x 0.000 Unknown 06/23/2022 07:37 PM 06/23/2022 07:40 PM 0.000 0.000 0.000 0.000 0.000 6.47 Unknown
06/24/2022 02:40 AM 71.78 61.52 54.86 100.04 70.52 55.0 Not Reported 4.03 W 4.47 W 6.26 W x 0.000 Unknown 06/23/2022 07:40 PM 06/23/2022 07:40 PM 0.000 0.000 0.000 0.000 0.000 6.24 Unknown
06/24/2022 02:41 AM 71.78 61.52 55.04 100.04 70.52 55.0 Not Reported 4.03 W 5.59 W 6.26 W Yes 0.000 Unknown 06/23/2022 07:40 PM 06/23/2022 07:40 PM 0.000 0.000 0.000 0.000 0.000 6.37 Unknown
06/24/2022 02:42 AM 71.78 61.52 55.22 100.04 70.52 55.0 Not Reported 4.03 W 5.37 W 6.26 W x 0.000 Unknown 06/23/2022 07:42 PM 06/23/2022 07:42 PM 0.000 0.000 0.000 0.000 0.000 6.11 Unknown
06/24/2022 02:43 AM 71.96 61.52 55.40 100.04 70.52 55.0 Not Reported 4.03 W 4.92 W 6.26 W Yes 0.000 Unknown 06/23/2022 07:42 PM 06/23/2022 07:42 PM 0.000 0.000 0.000 0.000 0.000 6.50 Unknown
06/24/2022 02:44 AM 71.60 61.52 55.22 100.04 70.52 56.0 Not Reported 4.03 W 5.14 W 6.26 W Yes 0.000 Unknown 06/23/2022 07:44 PM 06/23/2022 07:44 PM 0.000 0.000 0.000 0.000 0.000 6.37 Unknown
06/24/2022 02:45 AM 71.60 61.34 54.86 100.04 70.52 55.0 Not Reported 4.03 W 5.59 W 6.26 W x 0.000 Unknown 06/23/2022 07:44 PM 06/23/2022 07:44 PM 0.000 0.000 0.000 0.000 0.000 6.61 Unknown
06/24/2022 02:46 AM 71.42 61.52 55.04 100.04 70.52 56.0 Not Reported 4.03 W 5.37 W 6.26 W x 0.000 Unknown 06/23/2022 07:46 PM 06/23/2022 07:46 PM 0.000 0.000 0.000 0.000 0.000 6.13 Unknown
06/24/2022 02:47 AM 71.42 61.52 55.22 100.04 70.52 56.0 Not Reported 4.03 W 6.26 W 6.26 W Yes 0.000 Unknown 06/23/2022 07:46 PM 06/23/2022 07:46 PM 0.000 0.000 0.000 0.000 0.000 6.25 Unknown
06/24/2022 02:48 AM 71.42 61.34 55.22 100.04 70.52 56.0 Not Reported 4.03 W 4.25 W 6.26 W x 0.000 Unknown 06/23/2022 07:46 PM 06/23/2022 07:48 PM 0.000 0.000 0.000 0.000 0.000 6.31 Unknown
06/24/2022 02:49 AM 71.24 61.34 55.22 100.04 70.52 56.0 Not Reported 4.03 W 4.70 W 6.26 W Yes 0.000 Unknown 06/23/2022 07:48 PM 06/23/2022 07:48 PM 0.000 0.000 0.000 0.000 0.000 6.28 Unknown
06/24/2022 02:50 AM 71.24 61.34 55.22 100.04 70.52 56.0 Not Reported 4.03 W 4.25 W 6.26 W Yes 0.000 Unknown 06/23/2022 07:48 PM 06/23/2022 07:48 PM 0.000 0.000 0.000 0.000 0.000 6.32 Unknown
06/24/2022 02:51 AM 71.06 61.16 54.68 100.04 70.52 56.0 Not Reported 4.03 W 5.37 W 6.26 W Yes 0.000 Unknown 06/23/2022 07:50 PM 06/23/2022 07:50 PM 0.000 0.000 0.000 0.000 0.000 6.44 Unknown
06/24/2022 02:52 AM 71.06 61.34 55.22 100.04 70.52 56.0 Not Reported 4.03 W 4.47 SW 6.26 W Yes 0.000 Unknown 06/23/2022 07:52 PM 06/23/2022 07:52 PM 0.000 0.000 0.000 0.000 0.000 6.29 Unknown
06/24/2022 02:53 AM 71.06 61.16 54.86 100.04 70.52 56.0 Not Reported 4.03 W 3.80 W 6.26 W Yes 0.000 Unknown 06/23/2022 07:52 PM 06/23/2022 07:52 PM 0.000 0.000 0.000 0.000 0.000 6.27 Unknown
06/24/2022 02:54 AM 70.88 61.16 55.22 100.04 70.52 57.0 Not Reported 4.92 W 3.80 W 8.28 W Yes 0.000 Unknown 06/23/2022 07:52 PM 06/23/2022 07:52 PM 0.000 0.000 0.000 0.000 0.000 6.29 Unknown
06/24/2022 02:55 AM 70.88 61.34 55.40 100.04 70.52 57.0 Not Reported 4.92 W 5.37 W 8.28 W x 0.000 Unknown 06/23/2022 07:54 PM 06/23/2022 07:54 PM 0.000 0.000 0.000 0.000 0.000 6.01 Unknown
06/24/2022 02:56 AM 70.70 61.34 55.40 100.04 70.52 58.0 Not Reported 4.92 W 5.59 W 8.28 W x 0.000 Unknown 06/23/2022 07:54 PM 06/23/2022 07:54 PM 0.000 0.000 0.000 0.000 0.000 6.54 Unknown
06/24/2022 02:57 AM 70.52 61.16 55.22 100.04 70.52 58.0 Not Reported 4.92 W 4.47 SW 8.28 W x 0.000 Unknown 06/23/2022 07:57 PM 06/23/2022 07:57 PM 0.000 0.000 0.000 0.000 0.000 6.67 Unknown
06/24/2022 02:58 AM 70.52 60.98 55.04 100.04 70.52 57.0 Not Reported 4.92 W 3.80 W 8.28 W x 0.000 Unknown 06/23/2022 07:59 PM 06/23/2022 07:59 PM 0.000 0.000 0.000 0.000 0.000 6.34 Unknown
06/24/2022 02:59 AM 70.52 60.98 55.04 100.04 70.52 57.0 Not Reported 4.92 W 4.47 W 8.28 W Yes 0.000 Unknown 06/23/2022 07:59 PM 06/23/2022 07:59 PM 0.000 0.000 0.000 0.000 0.000 6.76 Unknown
06/24/2022 03:00 AM 70.52 60.98 55.22 100.04 70.52 58.0 Not Reported 4.92 W 3.13 W 8.28 W Yes 0.000 Unknown 06/23/2022 07:59 PM 06/23/2022 07:59 PM 0.000 0.000 0.000 0.000 0.000 6.37 Unknown
06/24/2022 03:01 AM 70.52 60.98 55.04 100.04 70.52 58.0 Not Reported 4.92 W 2.91 W 8.28 W x 0.000 Unknown 06/23/2022 08:01 PM 06/23/2022 08:01 PM 0.000 0.000 0.000 0.000 0.000 6.25 Unknown
06/24/2022 03:02 AM 70.52 60.80 54.86 100.04 70.52 57.0 Not Reported 4.92 W 4.25 W 8.28 W Yes 0.000 Unknown 06/23/2022 08:01 PM 06/23/2022 08:01 PM 0.000 0.000 0.000 0.000 0.000 6.29 Unknown
06/24/2022 03:03 AM 70.34 60.98 54.86 100.04 70.52 57.0 Not Reported 4.92 W 2.24 SW 8.28 W x 0.000 Unknown 06/23/2022 08:03 PM 06/23/2022 08:03 PM 0.000 0.000 0.000 0.000 0.000 6.65 Unknown
06/24/2022 03:04 AM 70.52 60.80 54.68 100.04 70.52 57.0 Not Reported 4.92 W 2.46 SW 8.28 W x 0.000 Unknown 06/23/2022 08:03 PM 06/23/2022 08:03 PM 0.000 0.000 0.000 0.000 0.000 6.78 Unknown
06/24/2022 03:05 AM 70.52 60.98 54.68 100.04 70.52 57.0 Not Reported 4.92 W 1.79 W 8.28 W x 0.000 Unknown 06/23/2022 08:05 PM 06/23/2022 08:05 PM 0.000 0.000 0.000 0.000 0.000 6.33 Unknown
06/24/2022 03:06 AM 70.52 60.98 54.86 100.04 70.52 57.0 Not Reported 4.92 W 2.24 W 8.28 W x 0.000 Unknown 06/23/2022 08:05 PM 06/23/2022 08:05 PM 0.000 0.000 0.000 0.000 0.000 6.72 Unknown
06/24/2022 03:07 AM 70.52 60.80 54.50 100.04 70.52 56.0 Not Reported 4.92 W 4.25 W 8.28 W x 0.000 Unknown 06/23/2022 08:07 PM 06/23/2022 08:07 PM 0.000 0.000 0.000 0.000 0.000 6.43 Unknown
06/24/2022 03:08 AM 70.52 60.44 53.96 100.04 70.52 55.0 Not Reported 3.80 W 5.14 W 7.16 W x 0.000 Unknown 06/23/2022 08:07 PM 06/23/2022 08:07 PM 0.000 0.000 0.000 0.000 0.000 6.73 Unknown
06/24/2022 03:09 AM 70.88 60.80 54.14 100.04 70.52 55.0 Not Reported 3.80 W 3.80 W 7.16 W x 0.000 Unknown 06/23/2022 08:09 PM 06/23/2022 08:09 PM 0.000 0.000 0.000 0.000 0.000 6.55 Unknown
06/24/2022 03:10 AM 70.88 60.62 53.96 100.04 70.52 55.0 Not Reported 3.80 W 3.36 W 7.16 W x 0.000 Unknown 06/23/2022 08:09 PM 06/23/2022 08:09 PM 0.000 0.000 0.000 0.000 0.000 6.70 Unknown
06/24/2022 03:11 AM 70.88 60.80 54.14 100.04 70.52 54.0 Not Reported 3.80 W 3.36 W 7.16 W Yes 0.000 Unknown 06/23/2022 08:12 PM   0.000 0.000 0.000 0.000 0.000 6.15 Unknown
06/24/2022 03:12 AM 71.06 60.80 54.32 100.04 70.52 55.0 Not Reported 3.80 W 4.03 W 7.16 W x 0.000 Unknown 06/23/2022 08:12 PM 06/23/2022 08:12 PM 0.000 0.000 0.000 0.000 0.000 6.48 Unknown
06/24/2022 03:13 AM 70.88 60.98 54.32 100.04 70.52 55.0 Not Reported 3.80 W 3.58 W 7.16 W x 0.000 Unknown 06/23/2022 08:12 PM 06/23/2022 08:12 PM 0.000 0.000 0.000 0.000 0.000 6.26 Unknown
06/24/2022 03:14 AM 71.06 60.80 54.14 100.04 70.52 55.0 Not Reported 3.80 W 2.24 SW 7.16 W x 0.000 Unknown 06/23/2022 08:12 PM 06/23/2022 08:12 PM 0.000 0.000 0.000 0.000 0.000 6.64 Unknown
06/24/2022 03:15 AM 71.06 60.98 54.32 100.04 70.52 55.0 Not Reported 3.80 W 3.13 W 7.16 W x 0.000 Unknown 06/23/2022 08:14 PM 06/23/2022 08:14 PM 0.000 0.000 0.000 0.000 0.000 6.42 Unknown
06/24/2022 03:16 AM 71.06 60.98 54.32 100.04 70.52 55.0 Not Reported 3.80 W 2.24 W 7.16 W x 0.000 Unknown 06/23/2022 08:14 PM 06/23/2022 08:14 PM 0.000 0.000 0.000 0.000 0.000 6.57 Unknown
06/24/2022 03:17 AM 71.06 60.80 54.14 100.04 70.52 55.0 Not Reported 3.80 W 3.13 W 7.16 W Yes 0.000 Unknown 06/23/2022 08:16 PM 06/23/2022 08:16 PM 0.000 0.000 0.000 0.000 0.000 6.53 Unknown
06/24/2022 03:18 AM 71.06 60.80 54.14 100.04 70.52 55.0 Not Reported 3.80 W 2.01 SW 7.16 W x 0.000 Unknown 06/23/2022 08:18 PM 06/23/2022 08:18 PM 0.000 0.000 0.000 0.000 0.000 6.68 Unknown
06/24/2022 03:19 AM 71.06 60.62 53.78 100.04 70.52 54.0 Not Reported 3.80 W 2.24 W 7.16 W x 0.000 Unknown 06/23/2022 08:18 PM 06/23/2022 08:18 PM 0.000 0.000 0.000 0.000 0.000 6.28 Unknown
06/24/2022 03:20 AM 71.42 60.62 53.42 100.04 70.52 53.0 Not Reported 3.80 W 2.91 W 7.16 W x 0.000 Unknown 06/23/2022 08:20 PM 06/23/2022 08:20 PM 0.000 0.000 0.000 0.000 0.000 6.62 Unknown
06/24/2022 03:21 AM 71.42 60.62 53.78 100.04 70.52 53.0 Not Reported 3.80 W 1.79 W 7.16 W x 0.000 Unknown 06/23/2022 08:20 PM 06/23/2022 08:20 PM 0.000 0.000 0.000 0.000 0.000 6.68 Unknown
06/24/2022 03:22 AM 71.42 60.80 53.96 100.04 70.52 54.0 Not Reported 3.13 W 2.91 W 5.59 W x 0.000 Unknown 06/23/2022 08:22 PM 06/23/2022 08:22 PM 0.000 0.000 0.000 0.000 0.000 6.56 Unknown
06/24/2022 03:23 AM 71.42 60.80 53.78 100.04 70.52 53.0 Not Reported 3.13 W 2.68 W 5.59 W x 0.000 Unknown 06/23/2022 08:22 PM 06/23/2022 08:22 PM 0.000 0.000 0.000 0.000 0.000 6.48 Unknown
06/24/2022 03:24 AM 71.42 60.62 53.78 100.04 70.52 53.0 Not Reported 3.13 W 4.25 W 5.59 W x 0.000 Unknown 06/23/2022 08:22 PM 06/23/2022 08:22 PM 0.000 0.000 0.000 0.000 0.000 6.53 Unknown
06/24/2022 03:25 AM 71.60 60.44 53.42 100.04 70.52 52.0 Not Reported 3.13 W 1.79 W 5.59 W x 0.000 Unknown 06/23/2022 08:24 PM 06/23/2022 08:24 PM 0.000 0.000 0.000 0.000 0.000 6.64 Unknown
06/24/2022 03:26 AM 71.60 60.80 53.60 100.04 70.52 52.0 Not Reported 3.13 W 4.70 W 5.59 W x 0.000 Unknown 06/23/2022 08:24 PM 06/23/2022 08:24 PM 0.000 0.000 0.000 0.000 0.000 6.68 Unknown
06/24/2022 03:27 AM 71.60 60.80 53.60 100.04 70.52 52.0 Not Reported 3.13 W 3.36 W 5.59 W x 0.000 Unknown 06/23/2022 08:26 PM 06/23/2022 08:26 PM 0.000 0.000 0.000 0.000 0.000 6.48 Unknown
06/24/2022 03:28 AM 71.60 60.80 53.96 100.04 70.52 53.0 Not Reported 3.13 W 2.91 W 5.59 W x 0.000 Unknown 06/23/2022 08:26 PM 06/23/2022 08:29 PM 0.000 0.000 0.000 0.000 0.000 6.63 Unknown
06/24/2022 03:29 AM 71.60 60.80 53.78 100.04 70.52 53.0 Not Reported 3.13 W 3.80 W 5.59 W x 0.000 Unknown 06/23/2022 08:29 PM 06/23/2022 08:29 PM 0.000 0.000 0.000 0.000 0.000 6.74 Unknown
06/24/2022 03:30 AM 71.60 60.80 53.60 100.04 70.52 53.0 Not Reported 3.13 W 2.46 W 5.59 W Yes 0.000 Unknown 06/23/2022 08:29 PM 06/23/2022 08:29 PM 0.000 0.000 0.000 0.000 0.000 6.44 Unknown
06/24/2022 03:31 AM 71.60 60.80 53.78 100.04 70.52 53.0 Not Reported 3.13 W 1.79 W 5.59 W x 0.000 Unknown 06/23/2022 08:29 PM 06/23/2022 08:31 PM 0.000 0.000 0.000 0.000 0.000 6.78 Unknown
06/24/2022 03:32 AM 71.60 60.98 54.14 100.04 70.52 54.0 Not Reported 3.13 W 3.36 W 5.59 W Yes 0.000 Unknown 06/23/2022 08:31 PM 06/23/2022 08:31 PM 0.000 0.000 0.000 0.000 0.000 6.58 Unknown
06/24/2022 03:33 AM 71.60 60.62 53.96 100.04 70.52 53.0 Not Reported 3.13 W 2.46 W 5.59 W x 0.000 Unknown 06/23/2022 08:33 PM 06/23/2022 08:33 PM 0.000 0.000 0.000 0.000 0.000 6.71 Unknown
06/24/2022 03:34 AM 71.42 60.62 53.78 100.04 70.52 53.0 Not Reported 3.13 W 3.36 SW 5.59 W x 0.000 Unknown 06/23/2022 08:33 PM 06/23/2022 08:33 PM 0.000 0.000 0.000 0.000 0.000 6.75 Unknown
06/24/2022 03:35 AM 71.42 60.80 53.96 100.04 70.52 53.0 Not Reported 3.13 W 4.47 W 5.59 W x 0.000 Unknown 06/23/2022 08:33 PM 06/23/2022 08:33 PM 0.000 0.000 0.000 0.000 0.000 6.29 Unknown
06/24/2022 03:36 AM 71.42 60.80 53.78 100.04 70.52 53.0 Not Reported 3.80 W 3.36 W 6.93 W x 0.000 Unknown 06/23/2022 08:35 PM 06/23/2022 08:35 PM 0.000 0.000 0.000 0.000 0.000 6.64 Unknown
06/24/2022 03:37 AM 71.42 60.98 54.14 100.04 70.52 54.0 Not Reported 3.80 W 3.13 W 6.93 W x 0.000 Unknown 06/23/2022 08:37 PM 06/23/2022 08:37 PM 0.000 0.000 0.000 0.000 0.000 6.74 Unknown
06/24/2022 03:38 AM 71.42 60.80 54.14 100.04 70.52 54.0 Not Reported 3.80 W 3.13 W 6.93 W x 0.000 Unknown 06/23/2022 08:37 PM 06/23/2022 08:37 PM 0.000 0.000 0.000 0.000 0.000 6.86 Unknown
06/24/2022 03:39 AM 71.06 60.80 53.96 100.04 70.52 54.0 Not Reported 3.80 W 3.80 W 6.93 W x 0.000 Unknown 06/23/2022 08:37 PM 06/23/2022 08:37 PM 0.000 0.000 0.000 0.000 0.000 6.91 Unknown
06/24/2022 03:40 AM 71.24 60.98 54.32 100.04 70.52 54.0 Not Reported 3.80 W 2.68 SW 6.93 W x 0.000 Unknown 06/23/2022 08:37 PM 06/23/2022 08:37 PM 0.000 0.000 0.000 0.000 0.000 6.83 Unknown
06/24/2022 03:41 AM 71.06 60.80 54.14 100.04 70.52 55.0 Not Reported 3.80 W 3.58 SW 6.93 W x 0.000 Unknown 06/23/2022 08:39 PM 06/23/2022 08:41 PM 0.000 0.000 0.000 0.000 0.000 6.80 Unknown
06/24/2022 03:42 AM 71.06 60.80 53.96 100.04 70.52 54.0 Not Reported 3.80 W 5.14 W 6.93 W x 0.000 Unknown 06/23/2022 08:39 PM 06/23/2022 08:41 PM 0.000 0.000 0.000 0.000 0.000 6.43 Unknown
06/24/2022 03:43 AM 71.06 60.62 53.60 100.04 70.52 53.0 Not Reported 3.80 W 4.92 W 6.93 W x 0.000 Unknown 06/23/2022 08:39 PM 06/23/2022 08:41 PM 0.000 0.000 0.000 0.000 0.000 6.74 Unknown
06/24/2022 03:44 AM 71.24 60.62 53.42 100.04 70.52 53.0 Not Reported 3.80 W 3.13 NW 6.93 W x 0.000 Unknown 06/23/2022 08:44 PM 06/23/2022 08:44 PM 0.000 0.000 0.000 0.000 0.000 6.44 Unknown
06/24/2022 03:45 AM 71.42 60.62 53.60 100.04 70.52 53.0 Not Reported 3.80 W 2.91 NW 6.93 W Yes 0.000 Unknown 06/23/2022 08:44 PM 06/23/2022 08:44 PM 0.000 0.000 0.000 0.000 0.000 6.82 Unknown
06/24/2022 03:46 AM 71.42 60.80 53.60 100.04 70.52 53.0 Not Reported 3.80 W 3.36 W 6.93 W x 0.000 Unknown 06/23/2022 08:44 PM 06/23/2022 08:46 PM 0.000 0.000 0.000 0.000 0.000 6.87 Unknown
06/24/2022 03:47 AM 71.42 60.80 53.60 100.04 70.52 53.0 Not Reported 3.80 W 2.68 W 6.93 W Yes 0.000 Unknown 06/23/2022 08:46 PM 06/23/2022 08:46 PM 0.000 0.000 0.000 0.000 0.000 7.03 Unknown
06/24/2022 03:48 AM 71.42 60.62 53.60 100.04 70.52 53.0 Not Reported 3.80 W 3.13 W 6.93 W x 0.000 Unknown 06/23/2022 08:48 PM 06/23/2022 08:48 PM 0.000 0.000 0.000 0.000 0.000 6.82 Unknown
06/24/2022 03:49 AM 71.78 60.62 53.60 100.04 70.52 52.0 Not Reported 3.80 W 3.36 NW 6.93 W Yes 0.000 Unknown 06/23/2022 08:48 PM 06/23/2022 08:48 PM 0.000 0.000 0.000 0.000 0.000 6.68 Unknown
06/24/2022 03:50 AM 71.78 60.98 53.78 100.04 70.52 53.0 Not Reported 3.36 W 3.13 W 6.26 W x 0.000 Unknown 06/23/2022 08:50 PM 06/23/2022 08:50 PM 0.000 0.000 0.000 0.000 0.000 7.04 Unknown
06/24/2022 03:51 AM 71.60 60.80 53.78 100.04 70.52 53.0 Not Reported 3.36 W 3.36 W 6.26 W x 0.000 Unknown 06/23/2022 08:50 PM 06/23/2022 08:50 PM 0.000 0.000 0.000 0.000 0.000 6.83 Unknown
06/24/2022 03:52 AM 71.60 60.62 53.24 100.04 70.52 52.0 Not Reported 3.36 W 2.91 W 6.26 W x 0.000 Unknown 06/23/2022 08:52 PM 06/23/2022 08:52 PM 0.000 0.000 0.000 0.000 0.000 6.83 Unknown
06/24/2022 03:53 AM 71.78 60.80 53.42 100.04 70.52 52.0 Not Reported 3.36 W 3.13 W 6.26 W x 0.000 Unknown 06/23/2022 08:52 PM 06/23/2022 08:52 PM 0.000 0.000 0.000 0.000 0.000 6.86 Unknown
06/24/2022 03:54 AM 71.78 60.44 53.06 100.04 70.52 51.0 Not Reported 3.36 W 6.26 NW 6.26 W x 0.000 Unknown 06/23/2022 08:52 PM 06/23/2022 08:52 PM 0.000 0.000 0.000 0.000 0.000 6.95 Unknown
06/24/2022 03:55 AM 71.96 60.62 53.06 100.04 70.52 51.0 Not Reported 3.36 W 5.14 W 6.26 W Yes 0.000 Unknown 06/23/2022 08:54 PM   0.000 0.000 0.000 0.000 0.000 6.50 Unknown
06/24/2022 03:56 AM 72.14 60.62 53.06 100.04 70.52 50.0 Not Reported 3.36 W 4.70 W 6.26 W x 0.000 Unknown 06/23/2022 08:54 PM 06/23/2022 08:56 PM 0.000 0.000 0.000 0.000 0.000 6.58 Unknown
06/24/2022 03:57 AM 72.32 60.62 53.06 100.04 70.52 50.0 Not Reported 3.36 W 4.47 W 6.26 W x 0.000 Unknown 06/23/2022 08:56 PM 06/23/2022 08:56 PM 0.000 0.000 0.000 0.000 0.000 6.83 Unknown
06/24/2022 03:58 AM 72.32 60.62 53.06 100.04 70.52 50.0 Not Reported 3.36 W 5.37 W 6.26 W Yes 0.000 Unknown 06/23/2022 08:56 PM 06/23/2022 08:56 PM 0.000 0.000 0.000 0.000 0.000 6.61 Unknown
06/24/2022 03:59 AM 72.32 60.80 53.06 100.04 70.52 50.0 Not Reported 3.36 W 3.58 W 6.26 W Yes 0.000 Unknown 06/23/2022 08:58 PM 06/23/2022 08:58 PM 0.000 0.000 0.000 0.000 0.000 6.45 Unknown
06/24/2022 04:00 AM 72.32 60.80 53.06 100.04 70.52 50.0 Not Reported 3.36 W 4.92 W 6.26 W x 0.000 Unknown 06/23/2022 08:58 PM 06/23/2022 08:58 PM 0.000 0.000 0.000 0.000 0.000 7.00 Unknown
06/24/2022 04:01 AM 72.50 60.80 53.06 100.04 70.52 50.0 Not Reported 3.36 W 4.03 W 6.26 W x 0.000 Unknown 06/23/2022 08:58 PM 06/23/2022 08:58 PM 0.000 0.000 0.000 0.000 0.000 6.43 Unknown
06/24/2022 04:02 AM 72.50 60.80 53.06 100.04 70.52 50.0 Not Reported 3.36 W 4.03 W 6.26 W x 0.000 Unknown 06/23/2022 09:01 PM 06/23/2022 09:01 PM 0.000 0.000 0.000 0.000 0.000 6.51 Unknown
06/24/2022 04:03 AM 72.68 60.80 53.42 100.04 70.52 50.0 Not Reported 3.36 W 4.70 W 6.26 W x 0.000 Unknown 06/23/2022 09:01 PM 06/23/2022 09:01 PM 0.000 0.000 0.000 0.000 0.000 7.06 Unknown
06/24/2022 04:04 AM 72.68 60.98 53.42 100.04 70.52 50.0 Not Reported 4.25 W 4.25 W 7.16 W x 0.000 Unknown 06/23/2022 09:03 PM 06/23/2022 09:03 PM 0.000 0.000 0.000 0.000 0.000 6.76 Unknown
06/24/2022 04:05 AM 72.68 60.98 53.42 100.04 70.52 50.0 Not Reported 4.25 W 4.47 W 7.16 W Yes 0.000 Unknown 06/23/2022 09:05 PM   0.000 0.000 0.000 0.000 0.000 6.76 Unknown
06/24/2022 04:06 AM 72.68 60.80 53.24 100.04 70.52 50.0 Not Reported 4.25 W 5.82 W 7.16 W x 0.000 Unknown 06/23/2022 09:05 PM 06/23/2022 09:05 PM 0.000 0.000 0.000 0.000 0.000 6.61 Unknown
06/24/2022 04:07 AM 72.68 60.80 53.06 100.04 70.52 50.0 Not Reported 4.25 W 6.04 W 7.16 W Yes 0.000 Unknown 06/23/2022 09:07 PM   0.000 0.000 0.000 0.000 0.000 6.86 Unknown
06/24/2022 04:08 AM 72.68 60.80 53.06 100.04 70.52 50.0 Not Reported 4.25 W 5.37 W 7.16 W x 0.000 Unknown 06/23/2022 09:07 PM 06/23/2022 09:07 PM 0.000 0.000 0.000 0.000 0.000 6.84 Unknown
06/24/2022 04:09 AM 72.68 60.80 53.06 100.04 70.52 50.0 Not Reported 4.25 W 3.58 NW 7.16 W x 0.000 Unknown 06/23/2022 09:07 PM 06/23/2022 09:07 PM 0.000 0.000 0.000 0.000 0.000 6.66 Unknown
06/24/2022 04:10 AM 72.68 60.80 53.24 100.04 70.52 50.0 Not Reported 4.25 W 4.25 W 7.16 W Yes 0.000 Unknown 06/23/2022 09:09 PM 06/23/2022 09:09 PM 0.000 0.000 0.000 0.000 0.000 6.83 Unknown
06/24/2022 04:11 AM 72.68 60.80 53.06 100.04 70.52 50.0 Not Reported 4.25 W 4.25 W 7.16 W x 0.000 Unknown 06/23/2022 09:09 PM 06/23/2022 09:09 PM 0.000 0.000 0.000 0.000 0.000 6.48 Unknown
06/24/2022 04:12 AM 72.68 60.80 53.06 100.04 70.52 50.0 Not Reported 4.25 W 3.58 W 7.16 W x 0.000 Unknown 06/23/2022 09:11 PM 06/23/2022 09:11 PM 0.000 0.000 0.000 0.000 0.000 6.61 Unknown
06/24/2022 04:13 AM 72.86 60.80 53.24 100.04 70.52 50.0 Not Reported 4.25 W 2.91 W 7.16 W x 0.000 Unknown 06/23/2022 09:11 PM 06/23/2022 09:11 PM 0.000 0.000 0.000 0.000 0.000 6.72 Unknown
06/24/2022 04:14 AM 72.68 60.80 53.24 100.04 70.52 50.0 Not Reported 4.25 W 3.36 W 7.16 W x 0.000 Unknown 06/23/2022 09:11 PM 06/23/2022 09:11 PM 0.000 0.000 0.000 0.000 0.000 6.35 Unknown
06/24/2022 04:15 AM 72.68 60.80 53.24 100.04 70.52 50.0 Not Reported 4.25 W 3.36 NW 7.16 W x 0.000 Unknown 06/23/2022 09:11 PM 06/23/2022 09:11 PM 0.000 0.000 0.000 0.000 0.000 6.66 Unknown
06/24/2022 04:16 AM 72.68 60.98 53.24 100.04 70.52 50.0 Not Reported 4.25 W 3.80 W 7.16 W Yes 0.000 Unknown 06/23/2022 09:16 PM 06/23/2022 09:16 PM 0.000 0.000 0.000 0.000 0.000 6.69 Unknown
06/24/2022 04:17 AM 72.68 60.98 53.24 100.04 70.52 50.0 Not Reported 4.25 W 3.80 W 7.16 W x 0.000 Unknown 06/23/2022 09:16 PM 06/23/2022 09:16 PM 0.000 0.000 0.000 0.000 0.000 6.78 Unknown
06/24/2022 04:18 AM 72.86 60.98 53.24 100.04 70.52 50.0 Not Reported 4.25 W 1.34 NW 6.49 W x 0.000 Unknown 06/23/2022 09:16 PM 06/23/2022 09:16 PM 0.000 0.000 0.000 0.000 0.000 6.78 Unknown
06/24/2022 04:19 AM 72.86 60.98 53.24 100.04 70.52 50.0 Not Reported 4.25 W 3.13 W 6.49 W x 0.000 Unknown 06/23/2022 09:16 PM 06/23/2022 09:16 PM 0.000 0.000 0.000 0.000 0.000 6.76 Unknown
06/24/2022 04:20 AM 72.68 60.98 53.06 100.04 70.52 50.0 Not Reported 4.25 W 4.25 NW 6.49 W x 0.000 Unknown 06/23/2022 09:20 PM 06/23/2022 09:20 PM 0.000 0.000 0.000 0.000 0.000 6.94 Unknown
06/24/2022 04:21 AM 72.68 60.80 53.06 100.04 70.52 49.0 Not Reported 4.25 W 3.36 NW 6.49 W x 0.000 Unknown 06/23/2022 09:20 PM 06/23/2022 09:20 PM 0.000 0.000 0.000 0.000 0.000 6.58 Unknown
06/24/2022 04:22 AM 72.86 60.98 53.24 100.04 70.52 50.0 Not Reported 4.25 W 4.47 NW 6.49 W x 0.000 Unknown 06/23/2022 09:22 PM 06/23/2022 09:22 PM 0.000 0.000 0.000 0.000 0.000 6.56 Unknown
06/24/2022 04:23 AM 72.86 61.16 53.42 100.04 70.52 50.0 Not Reported 4.25 W 4.25 NW 6.49 W x 0.000 Unknown 06/23/2022 09:22 PM 06/23/2022 09:22 PM 0.000 0.000 0.000 0.000 0.000 6.86 Unknown
06/24/2022 04:24 AM 72.86 61.16 53.24 100.04 70.52 50.0 Not Reported 4.25 W 2.24 NW 6.49 W x 0.000 Unknown 06/23/2022 09:24 PM 06/23/2022 09:24 PM 0.000 0.000 0.000 0.000 0.000 6.74 Unknown
06/24/2022 04:25 AM 73.04 60.98 53.42 100.04 70.52 50.0 Not Reported 4.25 W 3.80 NW 6.49 W x 0.000 Unknown 06/23/2022 09:24 PM 06/23/2022 09:24 PM 0.000 0.000 0.000 0.000 0.000 6.74 Unknown
06/24/2022 04:26 AM 73.04 61.16 53.42 100.04 70.52 50.0 Not Reported 4.25 W 3.58 NW 6.49 W x 0.000 Unknown 06/23/2022 09:24 PM 06/23/2022 09:24 PM 0.000 0.000 0.000 0.000 0.000 6.50 Unknown
06/24/2022 04:27 AM 73.04 60.98 53.24 100.04 70.52 49.0 Not Reported 4.25 W 2.68 NW 6.49 W x 0.000 Unknown 06/23/2022 09:26 PM 06/23/2022 09:26 PM 0.000 0.000 0.000 0.000 0.000 6.85 Unknown
06/24/2022 04:28 AM 73.04 60.98 53.42 100.04 70.52 50.0 Not Reported 4.25 W 4.03 W 6.49 W Yes 0.000 Unknown 06/23/2022 09:28 PM 06/23/2022 09:28 PM 0.000 0.000 0.000 0.000 0.000 6.91 Unknown
06/24/2022 04:29 AM 73.04 61.16 53.42 100.04 70.52 50.0 Not Reported 4.25 W 3.13 W 6.49 W x 0.000 Unknown 06/23/2022 09:28 PM 06/23/2022 09:28 PM 0.000 0.000 0.000 0.000 0.000 6.84 Unknown
06/24/2022 04:30 AM 73.04 60.98 53.42 100.04 70.52 50.0 Not Reported 4.25 W 4.25 W 6.49 W Yes 0.000 Unknown 06/23/2022 09:30 PM 06/23/2022 09:30 PM 0.000 0.000 0.000 0.000 0.000 6.67 Unknown
06/24/2022 04:31 AM 73.04 61.16 53.24 100.04 70.52 50.0 Not Reported 4.25 W 3.13 NW 6.49 W x 0.000 Unknown 06/23/2022 09:30 PM 06/23/2022 09:30 PM 0.000 0.000 0.000 0.000 0.000 6.68 Unknown
06/24/2022 04:32 AM 73.04 60.98 53.42 100.04 70.52 50.0 Not Reported 3.58 NW 4.47 NW 6.04 NW x 0.000 Unknown 06/23/2022 09:30 PM 06/23/2022 09:30 PM 0.000 0.000 0.000 0.000 0.000 6.94 Unknown
06/24/2022 04:33 AM 72.86 60.98 53.24 100.04 70.52 50.0 Not Reported 3.58 NW 3.36 NW 6.04 NW x 0.000 Unknown 06/23/2022 09:30 PM 06/23/2022 09:30 PM 0.000 0.000 0.000 0.000 0.000 6.58 Unknown
06/24/2022 04:34 AM 72.86 60.98 53.24 100.04 70.52 50.0 Not Reported 3.58 NW 5.14 W 6.04 NW x 0.000 Unknown 06/23/2022 09:33 PM 06/23/2022 09:33 PM 0.000 0.000 0.000 0.000 0.000 6.74 Unknown
06/24/2022 04:35 AM 72.86 60.98 53.24 100.04 70.52 50.0 Not Reported 3.58 NW 4.47 NW 6.04 NW x 0.000 Unknown 06/23/2022 09:35 PM 06/23/2022 09:35 PM 0.000 0.000 0.000 0.000 0.000 6.62 Unknown
06/24/2022 04:36 AM 73.04 61.16 53.42 100.04 70.52 50.0 Not Reported 3.58 NW 4.47 NW 6.04 NW Yes 0.000 Unknown 06/23/2022 09:35 PM 06/23/2022 09:35 PM 0.000 0.000 0.000 0.000 0.000 6.92 Unknown
06/24/2022 04:37 AM 72.86 60.98 53.42 100.04 70.52 50.0 Not Reported 3.58 NW 2.24 NW 6.04 NW x 0.000 Unknown 06/23/2022 09:35 PM 06/23/2022 09:37 PM 0.000 0.000 0.000 0.000 0.000 6.42 Unknown
06/24/2022 04:38 AM 72.68 60.98 53.24 100.04 70.52 50.0 Not Reported 3.58 NW 4.70 NW 6.04 NW x 0.000 Unknown 06/23/2022 09:37 PM 06/23/2022 09:37 PM 0.000 0.000 0.000 0.000 0.000 6.35 Unknown
06/24/2022 04:39 AM 72.86 60.98 53.42 100.04 70.52 50.0 Not Reported 3.58 NW 5.37 W 6.04 NW x 0.000 Unknown 06/23/2022 09:39 PM 06/23/2022 09:39 PM 0.000 0.000 0.000 0.000 0.000 6.74 Unknown
06/24/2022 04:40 AM 72.86 60.98 53.24 100.04 70.52 50.0 Not Reported 3.58 NW 7.61 W 6.04 NW x 0.000 Unknown 06/23/2022 09:39 PM 06/23/2022 09:39 PM 0.000 0.000 0.000 0.000 0.000 6.57 Unknown
06/24/2022 04:41 AM 72.68 60.98 53.24 100.04 70.52 50.0 Not Reported 3.58 NW 3.58 W 6.04 NW Yes 0.000 Unknown 06/23/2022 09:41 PM   0.000 0.000 0.000 0.000 0.000 6.60 Unknown
06/24/2022 04:42 AM 72.86 60.98 53.06 100.04 70.52 49.0 Not Reported 3.58 NW 6.49 NW 6.04 NW x 0.000 Unknown 06/23/2022 09:41 PM 06/23/2022 09:41 PM 0.000 0.000 0.000 0.000 0.000 6.80 Unknown
06/24/2022 04:43 AM 72.86 60.80 53.06 100.04 70.52 49.0 Not Reported 3.58 NW 5.14 W 6.04 NW x 0.000 Unknown 06/23/2022 09:43 PM 06/23/2022 09:43 PM 0.000 0.000 0.000 0.000 0.000 6.85 Unknown
06/24/2022 04:44 AM 72.86 60.98 53.24 100.04 70.52 50.0 Not Reported 3.58 NW 5.82 W 6.04 NW x 0.000 Unknown 06/23/2022 09:43 PM 06/23/2022 09:43 PM 0.000 0.000 0.000 0.000 0.000 6.29 Unknown
06/24/2022 04:45 AM 72.68 60.98 53.24 100.04 70.52 50.0 Not Reported 3.58 NW 5.59 NW 6.04 NW x 0.000 Unknown 06/23/2022 09:45 PM 06/23/2022 09:45 PM 0.000 0.000 0.000 0.000 0.000 6.55 Unknown
06/24/2022 04:46 AM 72.86 60.98 53.24 100.04 70.52 50.0 Not Reported 5.14 NW 5.14 W 8.28 W x 0.000 Unknown 06/23/2022 09:45 PM 06/23/2022 09:45 PM 0.000 0.000 0.000 0.000 0.000 6.61 Unknown
06/24/2022 04:47 AM 72.86 60.98 53.06 100.04 70.52 50.0 Not Reported 5.14 NW 7.16 W 8.28 W x 0.000 Unknown 06/23/2022 09:48 PM 06/23/2022 09:48 PM 0.000 0.000 0.000 0.000 0.000 6.62 Unknown
06/24/2022 04:48 AM 72.68 60.80 53.06 100.04 70.52 50.0 Not Reported 5.14 NW 6.71 W 8.28 W x 0.000 Unknown 06/23/2022 09:48 PM 06/23/2022 09:48 PM 0.000 0.000 0.000 0.000 0.000 6.76 Unknown
06/24/2022 04:49 AM 72.68 60.80 53.06 100.04 70.52 49.0 Not Reported 5.14 NW 8.05 W 8.28 W x 0.000 Unknown 06/23/2022 09:48 PM 06/23/2022 09:48 PM 0.000 0.000 0.000 0.000 0.000 6.54 Unknown
06/24/2022 04:50 AM 72.68 60.80 52.88 100.04 70.52 49.0 Not Reported 5.14 NW 7.83 NW 8.28 W Yes 0.000 Unknown 06/23/2022 09:50 PM 06/23/2022 09:50 PM 0.000 0.000 0.000 0.000 0.000 6.83 Unknown
06/24/2022 04:51 AM 72.68 60.80 53.06 100.04 70.52 49.0 Not Reported 5.14 NW 8.05 W 8.28 W x 0.000 Unknown 06/23/2022 09:50 PM 06/23/2022 09:50 PM 0.000 0.000 0.000 0.000 0.000 6.91 Unknown
06/24/2022 04:52 AM 72.68 60.62 53.06 100.04 70.52 49.0 Not Reported 5.14 NW 6.93 W 8.28 W x 0.000 Unknown 06/23/2022 09:52 PM 06/23/2022 09:52 PM 0.000 0.000 0.000 0.000 0.000 6.58 Unknown
06/24/2022 04:53 AM 72.68 60.62 52.88 100.04 70.52 49.0 Not Reported 5.14 NW 6.71 W 8.28 W x 0.000 Unknown 06/23/2022 09:52 PM 06/23/2022 09:52 PM 0.000 0.000 0.000 0.000 0.000 6.62 Unknown
06/24/2022 04:54 AM 72.68 60.80 52.88 100.04 70.52 49.0 Not Reported 5.14 NW 7.61 NW 8.28 W x 0.000 Unknown 06/23/2022 09:54 PM 06/23/2022 09:54 PM 0.000 0.000 0.000 0.000 0.000 6.62 Unknown
06/24/2022 04:55 AM 72.68 60.80 52.88 100.04 70.52 49.0 Not Reported 5.14 NW 7.83 NW 8.28 W x 0.000 Unknown 06/23/2022 09:54 PM 06/23/2022 09:54 PM 0.000 0.000 0.000 0.000 0.000 6.54 Unknown
06/24/2022 04:56 AM 72.50 60.62 52.88 100.04 70.52 50.0 Not Reported 5.14 NW 6.26 W 8.28 W x 0.000 Unknown 06/23/2022 09:54 PM 06/23/2022 09:54 PM 0.000 0.000 0.000 0.000 0.000 6.63 Unknown
06/24/2022 04:57 AM 72.50 60.62 52.70 100.04 70.52 49.0 Not Reported 5.14 NW 7.61 W 8.28 W x 0.000 Unknown 06/23/2022 09:56 PM 06/23/2022 09:56 PM 0.000 0.000 0.000 0.000 0.000 6.70 Unknown
06/24/2022 04:58 AM 72.68 60.80 52.70 100.04 70.52 49.0 Not Reported 5.14 NW 5.59 W 8.28 W x 0.000 Unknown 06/23/2022 09:58 PM 06/23/2022 09:58 PM 0.000 0.000 0.000 0.000 0.000 6.63 Unknown
06/24/2022 04:59 AM 72.68 60.62 52.52 100.04 70.52 49.0 Not Reported 5.14 NW 5.82 W 8.28 W x 0.000 Unknown 06/23/2022 09:58 PM 06/23/2022 09:58 PM 0.000 0.000 0.000 0.000 0.000 6.37 Unknown
06/24/2022 05:00 AM 72.50 60.62 52.34 100.04 70.52 49.0 Not Reported 6.71 W 6.26 W 10.96 W x 0.000 Unknown 06/23/2022 09:58 PM 06/23/2022 09:58 PM 0.000 0.000 0.000 0.000 0.000 6.82 Unknown
06/24/2022 05:01 AM 72.68 60.62 52.34 100.04 70.52 48.0 Not Reported 6.71 W 7.83 W 10.96 W Yes 0.000 Unknown 06/23/2022 10:00 PM 06/23/2022 10:00 PM 0.000 0.000 0.000 0.000 0.000 6.59 Unknown
06/24/2022 05:02 AM 72.68 60.44 52.52 100.04 70.52 48.0 Not Reported 6.71 W 7.83 W 10.96 W Yes 0.000 Unknown 06/23/2022 10:00 PM 06/23/2022 10:00 PM 0.000 0.000 0.000 0.000 0.000 6.45 Unknown
06/24/2022 05:03 AM 72.68 60.44 52.34 100.04 70.52 48.0 Not Reported 6.71 W 7.61 W 10.96 W x 0.000 Unknown 06/23/2022 10:02 PM 06/23/2022 10:02 PM 0.000 0.000 0.000 0.000 0.000 6.77 Unknown
06/24/2022 05:04 AM 72.68 60.44 52.34 100.04 70.52 48.0 Not Reported 6.71 W 8.05 NW 10.96 W x 0.000 Unknown 06/23/2022 10:02 PM 06/23/2022 10:02 PM 0.000 0.000 0.000 0.000 0.000 7.08 Unknown
06/24/2022 05:05 AM 72.68 60.44 52.34 100.04 70.52 48.0 Not Reported 6.71 W 7.61 W 10.96 W x 0.000 Unknown 06/23/2022 10:05 PM 06/23/2022 10:05 PM 0.000 0.000 0.000 0.000 0.000 6.51 Unknown
06/24/2022 05:06 AM 72.68 60.62 52.34 100.04 70.52 48.0 Not Reported 6.71 W 6.26 W 10.96 W Yes 0.000 Unknown 06/23/2022 10:05 PM 06/23/2022 10:05 PM 0.000 0.000 0.000 0.000 0.000 6.56 Unknown
06/24/2022 05:07 AM 72.68 60.44 52.34 100.04 70.52 48.0 Not Reported 6.71 W 4.70 W 10.96 W x 0.000 Unknown 06/23/2022 10:07 PM 06/23/2022 10:07 PM 0.000 0.000 0.000 0.000 0.000 6.91 Unknown
06/24/2022 05:08 AM 72.50 60.44 52.34 100.04 70.52 48.0 Not Reported 6.71 W 5.59 W 10.96 W x 0.000 Unknown 06/23/2022 10:07 PM 06/23/2022 10:07 PM 0.000 0.000 0.000 0.000 0.000 6.58 Unknown
06/24/2022 05:09 AM 72.86 60.44 52.52 100.04 70.52 48.0 Not Reported 6.71 W 6.26 NW 10.96 W x 0.000 Unknown 06/23/2022 10:09 PM 06/23/2022 10:09 PM 0.000 0.000 0.000 0.000 0.000 6.86 Unknown
06/24/2022 05:10 AM 72.68 60.44 52.52 100.04 70.52 49.0 Not Reported 6.71 W 2.01 NW 10.96 W x 0.000 Unknown 06/23/2022 10:09 PM 06/23/2022 10:09 PM 0.000 0.000 0.000 0.000 0.000 6.50 Unknown
06/24/2022 05:11 AM 72.50 60.62 52.70 100.04 70.52 49.0 Not Reported 6.71 W 2.24 W 10.96 W Yes 0.000 Unknown 06/23/2022 10:11 PM 06/23/2022 10:11 PM 0.000 0.000 0.000 0.000 0.000 6.96 Unknown
06/24/2022 05:12 AM 72.50 60.62 52.52 100.04 70.52 49.0 Not Reported 6.71 W 1.34 NW 10.96 W x 0.000 Unknown 06/23/2022 10:11 PM 06/23/2022 10:11 PM 0.000 0.000 0.000 0.000 0.000 7.06 Unknown
06/24/2022 05:13 AM 72.50 60.44 52.34 100.04 70.52 49.0 Not Reported 6.71 W 1.12 NW 10.96 W x 0.000 Unknown 06/23/2022 10:11 PM 06/23/2022 10:11 PM 0.000 0.000 0.000 0.000 0.000 6.87 Unknown
06/24/2022 05:14 AM 72.50 60.44 52.52 100.04 70.52 49.0 Not Reported 5.14 NW 4.92 W 10.96 W Yes 0.000 Unknown 06/23/2022 10:13 PM 06/23/2022 10:13 PM 0.000 0.000 0.000 0.000 0.000 6.61 Unknown
06/24/2022 05:15 AM 72.50 60.62 52.52 100.04 70.52 49.0 Not Reported 5.14 NW 0.89 NW 10.96 W x 0.000 Unknown 06/23/2022 10:13 PM 06/23/2022 10:13 PM 0.000 0.000 0.000 0.000 0.000 7.09 Unknown
06/24/2022 05:16 AM 72.50 60.44 52.52 100.04 70.52 49.0 Not Reported 5.14 NW 0.45 W 10.96 W x 0.000 Unknown 06/23/2022 10:15 PM 06/23/2022 10:15 PM 0.000 0.000 0.000 0.000 0.000 6.70 Unknown
06/24/2022 05:17 AM 72.50 60.44 52.52 100.04 70.52 49.0 Not Reported 5.14 NW 1.12 NW 10.96 W x 0.000 Unknown 06/23/2022 10:15 PM 06/23/2022 10:15 PM 0.000 0.000 0.000 0.000 0.000 6.82 Unknown
06/24/2022 05:18 AM 72.32 60.44 52.34 100.04 70.52 49.0 Not Reported 5.14 NW 4.70 NW 10.96 W Yes 0.000 Unknown 06/23/2022 10:17 PM   0.000 0.000 0.000 0.000 0.000 7.04 Unknown
06/24/2022 05:19 AM 72.50 60.44 52.52 100.04 70.52 49.0 Not Reported 5.14 NW 2.24 NW 10.96 W Yes 0.000 Unknown 06/23/2022 10:17 PM 06/23/2022 10:17 PM 0.000 0.000 0.000 0.000 0.000 6.73 Unknown
06/24/2022 05:20 AM 72.32 60.44 52.52 100.04 70.52 49.0 Not Reported 5.14 NW 2.01 NW 10.96 W x 0.000 Unknown 06/23/2022 10:20 PM 06/23/2022 10:20 PM 0.000 0.000 0.000 0.000 0.000 6.68 Unknown
06/24/2022 05:21 AM 72.32 60.26 52.34 100.04 70.52 49.0 Not Reported 5.14 NW 0.89 NW 10.96 W x 0.000 Unknown 06/23/2022 10:22 PM 06/23/2022 10:22 PM 0.000 0.000 0.000 0.000 0.000 6.81 Unknown
06/24/2022 05:22 AM 72.32 60.26 52.34 100.04 70.52 49.0 Not Reported 5.14 NW 4.47 W 10.96 W x 0.000 Unknown 06/23/2022 10:22 PM 06/23/2022 10:22 PM 0.000 0.000 0.000 0.000 0.000 6.69 Unknown
06/24/2022 05:23 AM 72.32 60.44 52.70 100.04 70.52 49.0 Not Reported 5.14 NW 0.89 NW 10.96 W x 0.000 Unknown 06/23/2022 10:22 PM 06/23/2022 10:22 PM 0.000 0.000 0.000 0.000 0.000 7.10 Unknown
06/24/2022 05:24 AM 72.32 60.44 52.52 100.04 70.52 49.0 Not Reported 5.14 NW 2.68 NW 10.96 W x 0.000 Unknown 06/23/2022 10:22 PM 06/23/2022 10:22 PM 0.000 0.000 0.000 0.000 0.000 6.58 Unknown
06/24/2022 05:25 AM 72.50 60.26 52.52 100.04 70.52 49.0 Not Reported 5.14 NW 3.80 NW 10.96 W x 0.000 Unknown 06/23/2022 10:22 PM 06/23/2022 10:22 PM 0.000 0.000 0.000 0.000 0.000 6.47 Unknown
06/24/2022 05:26 AM 72.50 60.44 52.70 100.04 70.52 49.0 Not Reported 5.14 NW 1.12 N 10.96 W Yes 0.000 Unknown 06/23/2022 10:26 PM 06/23/2022 10:26 PM 0.000 0.000 0.000 0.000 0.000 6.38 Unknown
06/24/2022 05:27 AM 72.32 60.62 52.52 100.04 70.52 49.0 Not Reported 5.14 NW 2.68 NW 10.96 W x 0.000 Unknown 06/23/2022 10:26 PM 06/23/2022 10:26 PM 0.000 0.000 0.000 0.000 0.000 6.52 Unknown
06/24/2022 05:28 AM 72.32 60.62 52.52 100.04 70.52 49.0 Not Reported 2.24 NW 1.34 NW 6.26 NW Yes 0.000 Unknown 06/23/2022 10:28 PM   0.000 0.000 0.000 0.000 0.000 6.68 Unknown
06/24/2022 05:29 AM 72.32 60.62 52.70 100.04 70.52 50.0 Not Reported 2.24 NW 0.67 N 6.26 NW Yes 0.000 Unknown 06/23/2022 10:28 PM 06/23/2022 10:28 PM 0.000 0.000 0.000 0.000 0.000 6.52 Unknown
06/24/2022 05:30 AM 72.50 60.62 52.88 100.04 70.52 50.0 Not Reported 2.24 NW 0.45 NW 6.26 NW x 0.000 Unknown 06/23/2022 10:30 PM 06/23/2022 10:30 PM 0.000 0.000 0.000 0.000 0.000 6.51 Unknown
06/24/2022 05:31 AM 72.32 60.62 52.70 100.04 70.52 50.0 Not Reported 2.24 NW 2.24 NW 6.26 NW x 0.000 Unknown 06/23/2022 10:30 PM 06/23/2022 10:30 PM 0.000 0.000 0.000 0.000 0.000 6.36 Unknown
06/24/2022 05:32 AM 72.50 60.62 52.88 100.04 70.52 50.0 Not Reported 2.24 NW 2.68 N 6.26 NW x 0.000 Unknown 06/23/2022 10:32 PM 06/23/2022 10:32 PM 0.000 0.000 0.000 0.000 0.000 6.28 Unknown
06/24/2022 05:33 AM 72.50 60.44 52.88 100.04 70.52 50.0 Not Reported 2.24 NW 4.03 N 6.26 NW x 0.000 Unknown 06/23/2022 10:32 PM 06/23/2022 10:32 PM 0.000 0.000 0.000 0.000 0.000 6.49 Unknown
06/24/2022 05:34 AM 72.32 60.62 52.88 100.04 70.52 50.0 Not Reported 2.24 NW 3.13 NW 6.26 NW x 0.000 Unknown 06/23/2022 10:32 PM 06/23/2022 10:32 PM 0.000 0.000 0.000 0.000 0.000 6.45 Unknown
06/24/2022 05:35 AM 72.32 60.62 52.88 100.04 70.52 50.0 Not Reported 2.24 NW 1.79 N 6.26 NW x 0.000 Unknown 06/23/2022 10:32 PM 06/23/2022 10:32 PM 0.000 0.000 0.000 0.000 0.000 6.27 Unknown
06/24/2022 05:36 AM 72.32 60.62 53.06 100.04 70.52 50.0 Not Reported 2.24 NW 3.13 N 6.26 NW x 0.000 Unknown 06/23/2022 10:32 PM 06/23/2022 10:32 PM 0.000 0.000 0.000 0.000 0.000 6.35 Unknown
06/24/2022 05:37 AM 72.14 60.62 52.88 100.04 70.52 50.0 Not Reported 2.24 NW 0.89 N 6.26 NW x 0.000 Unknown 06/23/2022 10:32 PM 06/23/2022 10:32 PM 0.000 0.000 0.000 0.000 0.000 6.27 Unknown
06/24/2022 05:38 AM 72.14 60.62 52.88 100.04 70.52 50.0 Not Reported 2.24 NW 0.67 W 6.26 NW x 0.000 Unknown 06/23/2022 10:32 PM 06/23/2022 10:32 PM 0.000 0.000 0.000 0.000 0.000 6.50 Unknown
06/24/2022 05:39 AM 72.14 60.62 53.06 100.04 70.52 51.0 Not Reported 2.24 NW 1.12 NW 6.26 NW x 0.000 Unknown 06/23/2022 10:32 PM 06/23/2022 10:32 PM 0.000 0.000 0.000 0.000 0.000 6.56 Unknown
06/24/2022 05:40 AM 71.96 60.62 53.06 100.04 70.52 51.0 Not Reported 2.24 NW 0.89 NW 6.26 NW x 0.000 Unknown 06/23/2022 10:32 PM 06/23/2022 10:32 PM 0.000 0.000 0.000 0.000 0.000 6.42 Unknown
06/24/2022 05:41 AM 71.96 60.62 53.06 100.04 70.52 51.0 Not Reported 2.24 NW 0.67 NW 6.26 NW x 0.000 Unknown 06/23/2022 10:32 PM 06/23/2022 10:32 PM 0.000 0.000 0.000 0.000 0.000 6.06 Unknown
06/24/2022 05:42 AM 71.78 60.44 53.06 100.04 70.52 51.0 Not Reported 1.79 NW 0.00 NW 5.14 N x 0.000 Unknown 06/23/2022 10:32 PM 06/23/2022 10:32 PM 0.000 0.000 0.000 0.000 0.000 6.58 Unknown
06/24/2022 05:43 AM 71.78 60.62 53.06 100.04 70.52 51.0 Not Reported 1.79 NW 0.22 NW 5.14 N x 0.000 Unknown 06/23/2022 10:32 PM 06/23/2022 10:32 PM 0.000 0.000 0.000 0.000 0.000 6.28 Unknown
06/24/2022 05:44 AM 71.60 60.44 53.24 100.04 70.52 52.0 Not Reported 1.79 NW 0.45 NW 5.14 N x 0.000 Unknown 06/23/2022 10:32 PM 06/23/2022 10:32 PM 0.000 0.000 0.000 0.000 0.000 6.35 Unknown
06/24/2022 05:45 AM 71.60 60.26 53.06 100.04 70.52 52.0 Not Reported 1.79 NW 0.45 NW 5.14 N x 0.000 Unknown 06/23/2022 10:32 PM 06/23/2022 10:32 PM 0.000 0.000 0.000 0.000 0.000 6.62 Unknown
06/24/2022 05:46 AM 71.42 60.26 52.88 100.04 70.52 51.0 Not Reported 1.79 NW 3.58 W 5.14 N Yes 0.000 Unknown 06/23/2022 10:45 PM 06/23/2022 10:45 PM 0.000 0.000 0.000 0.000 0.000 6.50 Unknown
06/24/2022 05:47 AM 71.42 60.26 52.88 100.04 70.52 51.0 Not Reported 1.79 NW 2.46 NW 5.14 N x 0.000 Unknown 06/23/2022 10:45 PM 06/23/2022 10:45 PM 0.000 0.000 0.000 0.000 0.000 6.36 Unknown
06/24/2022 05:48 AM 71.60 60.44 52.88 100.04 70.52 51.0 Not Reported 1.79 NW 3.36 NW 5.14 N Yes 0.000 Unknown 06/23/2022 10:47 PM 06/23/2022 10:47 PM 0.000 0.000 0.000 0.000 0.000 6.31 Unknown
06/24/2022 05:49 AM 71.78 60.26 53.06 100.04 70.52 51.0 Not Reported 1.79 NW 2.46 NW 5.14 N x 0.000 Unknown 06/23/2022 10:47 PM 06/23/2022 10:47 PM 0.000 0.000 0.000 0.000 0.000 6.52 Unknown
06/24/2022 05:50 AM 71.60 60.44 52.88 100.04 70.52 51.0 Not Reported 1.79 NW 1.79 W 5.14 N x 0.000 Unknown 06/23/2022 10:49 PM 06/23/2022 10:49 PM 0.000 0.000 0.000 0.000 0.000 6.11 Unknown
06/24/2022 05:51 AM 71.60 60.26 52.88 100.04 70.52 51.0 Not Reported 1.79 NW 0.89 NW 5.14 N x 0.000 Unknown 06/23/2022 10:49 PM 06/23/2022 10:49 PM 0.000 0.000 0.000 0.000 0.000 6.44 Unknown
06/24/2022 05:52 AM 71.60 60.44 52.88 100.04 70.52 51.0 Not Reported 1.79 NW 2.68 NW 5.14 N Yes 0.000 Unknown 06/23/2022 10:52 PM 06/23/2022 10:52 PM 0.000 0.000 0.000 0.000 0.000 6.57 Unknown
06/24/2022 05:53 AM 71.60 60.26 52.88 100.04 70.52 51.0 Not Reported 1.79 NW 1.12 NW 5.14 N x 0.000 Unknown 06/23/2022 10:52 PM 06/23/2022 10:52 PM 0.000 0.000 0.000 0.000 0.000 6.44 Unknown
06/24/2022 05:54 AM 71.60 60.26 52.88 100.04 70.52 51.0 Not Reported 1.79 NW 1.12 NW 5.14 N x 0.000 Unknown 06/23/2022 10:52 PM 06/23/2022 10:52 PM 0.000 0.000 0.000 0.000 0.000 6.66 Unknown
06/24/2022 05:55 AM 71.60 60.44 52.88 100.04 70.52 51.0 Not Reported 1.79 NW 0.45 NW 5.14 N x 0.000 Unknown 06/23/2022 10:52 PM 06/23/2022 10:52 PM 0.000 0.000 0.000 0.000 0.000 6.24 Unknown
06/24/2022 05:56 AM 71.78 60.44 52.88 100.04 70.52 51.0 Not Reported 1.57 NW 0.67 N 4.70 NW x 0.000 Unknown 06/23/2022 10:52 PM 06/23/2022 10:52 PM 0.000 0.000 0.000 0.000 0.000 5.94 Unknown
06/24/2022 05:57 AM 71.78 60.44 53.06 100.04 70.52 51.0 Not Reported 1.57 NW 1.57 N 4.70 NW x 0.000 Unknown 06/23/2022 10:52 PM 06/23/2022 10:52 PM 0.000 0.000 0.000 0.000 0.000 6.16 Unknown
06/24/2022 05:58 AM 71.78 60.44 52.88 100.04 70.52 51.0 Not Reported 1.57 NW 0.00 NW 4.70 NW x 0.000 Unknown 06/23/2022 10:58 PM 06/23/2022 10:58 PM 0.000 0.000 0.000 0.000 0.000 6.03 Unknown
06/24/2022 05:59 AM 71.78 60.44 53.06 100.04 70.52 51.0 Not Reported 1.57 NW 1.12 N 4.70 NW x 0.000 Unknown 06/23/2022 10:58 PM 06/23/2022 10:58 PM 0.000 0.000 0.000 0.000 0.000 6.16 Unknown
06/24/2022 06:00 AM 71.78 60.62 53.06 100.04 70.52 51.0 Not Reported 1.57 NW 0.45 W 4.70 NW Yes 0.000 Unknown 06/23/2022 11:00 PM 06/23/2022 11:00 PM 0.000 0.000 0.000 0.000 0.000 6.63 Unknown
06/24/2022 06:01 AM 71.78 60.44 52.88 100.04 70.52 51.0 Not Reported 1.57 NW 1.34 NE 4.70 NW x 0.000 Unknown 06/23/2022 11:00 PM 06/23/2022 11:00 PM 0.000 0.000 0.000 0.000 0.000 6.18 Unknown
06/24/2022 06:02 AM 71.78 60.44 52.88 100.04 70.52 51.0 Not Reported 1.57 NW 1.57 NE 4.70 NW x 0.000 Unknown 06/23/2022 11:02 PM 06/23/2022 11:02 PM 0.000 0.000 0.000 0.000 0.000 6.63 Unknown
06/24/2022 06:03 AM 71.78 60.62 52.88 100.04 70.52 51.0 Not Reported 1.57 NW 2.46 N 4.70 NW x 0.000 Unknown 06/23/2022 11:02 PM 06/23/2022 11:02 PM 0.000 0.000 0.000 0.000 0.000 6.15 Unknown
06/24/2022 06:04 AM 71.78 60.44 53.06 100.04 70.52 51.0 Not Reported 1.57 NW 2.24 N 4.70 NW x 0.000 Unknown 06/23/2022 11:04 PM 06/23/2022 11:04 PM 0.000 0.000 0.000 0.000 0.000 6.39 Unknown
06/24/2022 06:05 AM 71.60 60.44 53.24 100.04 70.52 52.0 Not Reported 1.57 NW 4.03 N 4.70 NW x 0.000 Unknown 06/23/2022 11:04 PM 06/23/2022 11:04 PM 0.000 0.000 0.000 0.000 0.000 6.11 Unknown
06/24/2022 06:06 AM 71.42 60.44 53.06 100.04 70.52 52.0 Not Reported 1.57 NW 3.58 N 4.70 NW x 0.000 Unknown 06/23/2022 11:04 PM 06/23/2022 11:04 PM 0.000 0.000 0.000 0.000 0.000 6.17 Unknown
06/24/2022 06:07 AM 71.42 60.44 53.06 100.04 70.52 52.0 Not Reported 1.57 NW 1.34 N 4.70 NW x 0.000 Unknown 06/23/2022 11:06 PM 06/23/2022 11:06 PM 0.000 0.000 0.000 0.000 0.000 6.30 Unknown
06/24/2022 06:08 AM 71.42 60.44 53.06 100.04 70.52 52.0 Not Reported 1.57 NW 2.46 N 4.70 NW x 0.000 Unknown 06/23/2022 11:06 PM 06/23/2022 11:06 PM 0.000 0.000 0.000 0.000 0.000 6.45 Unknown
06/24/2022 06:09 AM 71.42 60.44 53.06 100.04 70.52 52.0 Not Reported 1.57 NW 0.67 N 4.70 NW x 0.000 Unknown 06/23/2022 11:09 PM 06/23/2022 11:09 PM 0.000 0.000 0.000 0.000 0.000 6.40 Unknown
06/24/2022 06:10 AM 71.42 60.26 53.06 100.04 70.52 52.0 Not Reported 1.57 N 3.13 N 4.70 N x 0.000 Unknown 06/23/2022 11:09 PM 06/23/2022 11:09 PM 0.000 0.000 0.000 0.000 0.000 6.29 Unknown
06/24/2022 06:11 AM 71.60 60.44 52.88 100.04 70.52 51.0 Not Reported 1.57 N 0.00 NW 4.70 N x 0.000 Unknown 06/23/2022 11:11 PM 06/23/2022 11:11 PM 0.000 0.000 0.000 0.000 0.000 6.26 Unknown
06/24/2022 06:12 AM 71.78 60.44 52.88 100.04 70.52 51.0 Not Reported 1.57 N 0.89 NW 4.70 N x 0.000 Unknown 06/23/2022 11:11 PM 06/23/2022 11:11 PM 0.000 0.000 0.000 0.000 0.000 6.90 Unknown
06/24/2022 06:13 AM 71.78 60.44 53.24 100.04 70.52 51.0 Not Reported 1.57 N 0.00 NW 4.70 N x 0.000 Unknown 06/23/2022 11:13 PM 06/23/2022 11:13 PM 0.000 0.000 0.000 0.000 0.000 6.41 Unknown
06/24/2022 06:14 AM 71.60 60.44 53.06 100.04 70.52 52.0 Not Reported 1.57 N 2.24 NW 4.70 N x 0.000 Unknown 06/23/2022 11:13 PM 06/23/2022 11:13 PM 0.000 0.000 0.000 0.000 0.000 6.28 Unknown
06/24/2022 06:15 AM 71.78 60.62 53.24 100.04 70.52 52.0 Not Reported 1.57 N 0.89 W 4.70 N Yes 0.000 Unknown 06/23/2022 11:15 PM 06/23/2022 11:15 PM 0.000 0.000 0.000 0.000 0.000 6.84 Unknown
06/24/2022 06:16 AM 71.60 60.62 53.06 100.04 70.52 52.0 Not Reported 1.57 N 1.34 NE 4.70 N x 0.000 Unknown 06/23/2022 11:15 PM 06/23/2022 11:15 PM 0.000 0.000 0.000 0.000 0.000 6.14 Unknown
06/24/2022 06:17 AM 71.78 60.62 53.24 100.04 70.52 52.0 Not Reported 1.57 N 0.89 N 4.70 N x 0.000 Unknown 06/23/2022 11:15 PM 06/23/2022 11:15 PM 0.000 0.000 0.000 0.000 0.000 6.70 Unknown
06/24/2022 06:18 AM 71.78 60.62 53.42 100.04 70.52 52.0 Not Reported 1.57 N 0.67 NW 4.70 N x 0.000 Unknown 06/23/2022 11:17 PM 06/23/2022 11:17 PM 0.000 0.000 0.000 0.000 0.000 6.33 Unknown
06/24/2022 06:19 AM 71.78 60.62 53.42 100.04 70.52 52.0 Not Reported 1.57 N 2.24 NE 4.70 N x 0.000 Unknown 06/23/2022 11:17 PM 06/23/2022 11:17 PM 0.000 0.000 0.000 0.000 0.000 6.44 Unknown
06/24/2022 06:20 AM 71.96 60.98 53.96 100.04 70.52 52.0 Not Reported 1.57 N 1.57 NE 4.70 N x 0.000 Unknown 06/23/2022 11:19 PM 06/23/2022 11:19 PM 0.000 0.000 0.000 0.000 0.000 6.17 Unknown
06/24/2022 06:21 AM 71.96 60.98 54.14 100.04 70.52 53.0 Not Reported 1.57 N 2.91 E 4.70 N x 0.000 Unknown 06/23/2022 11:19 PM 06/23/2022 11:19 PM 0.000 0.000 0.000 0.000 0.000 6.39 Unknown
06/24/2022 06:22 AM 71.78 60.98 53.96 100.04 70.52 53.0 Not Reported 1.57 N 2.46 E 4.70 N x 0.000 Unknown 06/23/2022 11:21 PM 06/23/2022 11:21 PM 0.000 0.000 0.000 0.000 0.000 5.78 Unknown
06/24/2022 06:23 AM 71.60 60.80 53.78 100.04 70.52 53.0 Not Reported 1.57 N 0.00 W 4.70 N x 0.000 Unknown 06/23/2022 11:21 PM 06/23/2022 11:21 PM 0.000 0.000 0.000 0.000 0.000 6.01 Unknown
06/24/2022 06:24 AM 71.60 60.98 54.14 100.04 70.52 54.0 Not Reported 1.57 N 0.00 E 4.92 N x 0.000 Unknown 06/23/2022 11:21 PM 06/23/2022 11:21 PM 0.000 0.000 0.000 0.000 0.000 6.47 Unknown
06/24/2022 06:25 AM 71.60 60.98 54.32 100.04 70.52 54.0 Not Reported 1.57 N 2.01 N 4.92 N x 0.000 Unknown 06/23/2022 11:24 PM 06/23/2022 11:24 PM 0.000 0.000 0.000 0.000 0.000 6.38 Unknown
06/24/2022 06:26 AM 71.60 61.16 54.32 100.04 70.52 54.0 Not Reported 1.57 N 1.57 NW 4.92 N x 0.000 Unknown 06/23/2022 11:24 PM 06/23/2022 11:24 PM 0.000 0.000 0.000 0.000 0.000 6.05 Unknown
06/24/2022 06:27 AM 71.60 61.16 54.32 100.04 70.52 54.0 Not Reported 1.57 N 0.00 N 4.92 N x 0.000 Unknown 06/23/2022 11:24 PM 06/23/2022 11:24 PM 0.000 0.000 0.000 0.000 0.000 6.16 Unknown
06/24/2022 06:28 AM 71.42 60.98 54.14 100.04 70.52 54.0 Not Reported 1.57 N 0.00 NE 4.92 N x 0.000 Unknown 06/23/2022 11:28 PM 06/23/2022 11:28 PM 0.000 0.000 0.000 0.000 0.000 6.58 Unknown
06/24/2022 06:29 AM 71.42 60.80 54.14 100.04 70.52 54.0 Not Reported 1.57 N 1.12 N 4.92 N x 0.000 Unknown 06/23/2022 11:28 PM 06/23/2022 11:28 PM 0.000 0.000 0.000 0.000 0.000 6.34 Unknown
06/24/2022 06:31 AM 71.42 60.98 54.14 100.04 70.52 54.0 Not Reported 1.57 N 2.01 NE 4.92 N x 0.000 Unknown 06/23/2022 11:30 PM 06/23/2022 11:30 PM 0.000 0.000 0.000 0.000 0.000 6.18 Unknown
06/24/2022 06:32 AM 71.42 60.98 54.14 100.04 70.52 54.0 Not Reported 1.57 N 0.67 N 4.92 N x 0.000 Unknown 06/23/2022 11:32 PM 06/23/2022 11:32 PM 0.000 0.000 0.000 0.000 0.000 6.07 Unknown
06/24/2022 06:33 AM 71.42 61.16 54.14 100.04 70.52 54.0 Not Reported 1.57 N 2.46 NE 4.92 N x 0.000 Unknown 06/23/2022 11:32 PM 06/23/2022 11:32 PM 0.000 0.000 0.000 0.000 0.000 6.25 Unknown
06/24/2022 06:34 AM 71.60 60.98 54.14 100.04 70.52 54.0 Not Reported 1.57 N 3.36 N 4.92 N x 0.000 Unknown 06/23/2022 11:34 PM 06/23/2022 11:34 PM 0.000 0.000 0.000 0.000 0.000 6.28 Unknown
06/24/2022 06:35 AM 71.42 60.98 54.14 100.04 70.52 54.0 Not Reported 1.57 N 1.12 E 4.92 N Yes 0.000 Unknown 06/23/2022 11:34 PM 06/23/2022 11:34 PM 0.000 0.000 0.000 0.000 0.000 6.20 Unknown
06/24/2022 06:36 AM 71.60 60.98 54.32 100.04 70.52 54.0 Not Reported 1.57 N 0.89 N 4.92 N Yes 0.000 Unknown 06/23/2022 11:36 PM 06/23/2022 11:36 PM 0.000 0.000 0.000 0.000 0.000 6.16 Unknown
06/24/2022 06:37 AM 71.60 61.16 54.50 100.04 70.52 54.0 Not Reported 1.57 N 0.45 NW 4.92 N x 0.000 Unknown 06/23/2022 11:36 PM 06/23/2022 11:36 PM 0.000 0.000 0.000 0.000 0.000 6.74 Unknown
06/24/2022 06:38 AM 71.60 61.16 54.32 100.04 70.52 54.0 Not Reported 1.34 NE 0.22 NW 4.25 N Yes 0.000 Unknown 06/23/2022 11:38 PM 06/23/2022 11:38 PM 0.000 0.000 0.000 0.000 0.000 6.24 Unknown
06/24/2022 06:39 AM 71.78 61.16 54.32 100.04 70.52 54.0 Not Reported 1.34 NE 0.89 N 4.25 N x 0.000 Unknown 06/23/2022 11:38 PM 06/23/2022 11:38 PM 0.000 0.000 0.000 0.000 0.000 6.13 Unknown
06/24/2022 06:40 AM 71.78 61.34 54.50 100.04 70.52 54.0 Not Reported 1.34 NE 0.00 NW 4.25 N x 0.000 Unknown 06/23/2022 11:38 PM 06/23/2022 11:38 PM 0.000 0.000 0.000 0.000 0.000 6.37 Unknown
06/24/2022 06:41 AM 71.96 61.16 54.50 100.04 70.52 54.0 Not Reported 1.34 NE 2.46 NW 4.25 N x 0.000 Unknown 06/23/2022 11:41 PM 06/23/2022 11:41 PM 0.000 0.000 0.000 0.000 0.000 6.09 Unknown
06/24/2022 06:42 AM 71.96 61.16 54.50 100.04 70.52 54.0 Not Reported 1.34 NE 0.67 N 4.25 N Yes 0.000 Unknown 06/23/2022 11:41 PM 06/23/2022 11:41 PM 0.000 0.000 0.000 0.000 0.000 6.51 Unknown
06/24/2022 06:43 AM 72.14 61.34 54.50 100.04 70.52 53.0 Not Reported 1.34 NE 1.79 NW 4.25 N Yes 0.000 Unknown 06/23/2022 11:43 PM 06/23/2022 11:43 PM 0.000 0.000 0.000 0.000 0.000 6.37 Unknown
06/24/2022 06:44 AM 72.14 61.34 54.32 100.04 70.52 53.0 Not Reported 1.34 NE 1.34 NW 4.25 N x 0.000 Unknown 06/23/2022 11:43 PM 06/23/2022 11:43 PM 0.000 0.000 0.000 0.000 0.000 6.65 Unknown
06/24/2022 06:45 AM 72.32 61.34 54.32 100.04 70.52 53.0 Not Reported 1.34 NE 0.67 N 4.25 N x 0.000 Unknown 06/23/2022 11:45 PM 06/23/2022 11:45 PM 0.000 0.000 0.000 0.000 0.000 6.23 Unknown
06/24/2022 06:46 AM 72.32 61.52 54.50 100.04 70.52 53.0 Not Reported 1.34 NE 1.79 N 4.25 N x 0.000 Unknown 06/23/2022 11:45 PM 06/23/2022 11:45 PM 0.000 0.000 0.000 0.000 0.000 5.90 Unknown
06/24/2022 06:47 AM 72.32 61.34 54.14 100.04 70.52 53.0 Not Reported 1.34 NE 0.00 N 4.25 N x 0.000 Unknown 06/23/2022 11:47 PM 06/23/2022 11:47 PM 0.000 0.000 0.000 0.000 0.000 6.63 Unknown
06/24/2022 06:48 AM 72.50 61.34 54.32 100.04 70.52 52.0 Not Reported 1.34 NE 1.12 N 4.25 N x 0.000 Unknown 06/23/2022 11:47 PM 06/23/2022 11:47 PM 0.000 0.000 0.000 0.000 0.000 6.52 Unknown
06/24/2022 06:49 AM 72.50 61.52 54.68 100.04 70.52 53.0 Not Reported 1.34 NE 0.00 NW 4.25 N x 0.000 Unknown 06/23/2022 11:47 PM 06/23/2022 11:47 PM 0.000 0.000 0.000 0.000 0.000 6.56 Unknown
06/24/2022 06:50 AM 72.68 61.52 54.50 100.04 70.52 52.0 Not Reported 1.34 NE 2.01 W 4.25 N x 0.000 Unknown 06/23/2022 11:49 PM 06/23/2022 11:49 PM 0.000 0.000 0.000 0.000 0.000 6.11 Unknown
06/24/2022 06:51 AM 72.50 61.34 54.14 100.04 70.52 52.0 Not Reported 1.34 NE 0.67 W 4.25 N x 0.000 Unknown 06/23/2022 11:51 PM 06/23/2022 11:51 PM 0.000 0.000 0.000 0.000 0.000 6.96 Unknown
06/24/2022 06:52 AM 72.68 61.34 53.96 100.04 70.52 51.0 Not Reported 1.34 NW 0.89 W 4.25 N x 0.000 Unknown 06/23/2022 11:51 PM 06/23/2022 11:51 PM 0.000 0.000 0.000 0.000 0.000 6.11 Unknown
06/24/2022 06:53 AM 73.04 61.34 54.14 100.04 70.52 51.0 Not Reported 1.34 NW 1.57 NW 4.25 N x 0.000 Unknown 06/23/2022 11:53 PM 06/23/2022 11:53 PM 0.000 0.000 0.000 0.000 0.000 6.27 Unknown
06/24/2022 06:54 AM 73.04 61.52 54.32 100.04 70.52 51.0 Not Reported 1.34 NW 0.45 NW 4.25 N Yes 0.000 Unknown 06/23/2022 11:53 PM 06/23/2022 11:53 PM 0.000 0.000 0.000 0.000 0.000 7.02 Unknown
06/24/2022 06:55 AM 73.04 61.70 54.50 100.04 70.52 52.0 Not Reported 1.34 NW 0.89 W 4.25 N Yes 0.000 Unknown 06/23/2022 11:56 PM   0.000 0.000 0.000 0.000 0.000 6.27 Unknown
06/24/2022 06:56 AM 73.22 61.88 54.50 100.04 70.52 51.0 Not Reported 1.34 NW 0.00 NW 4.25 N x 0.000 Unknown 06/23/2022 11:56 PM 06/23/2022 11:56 PM 0.000 0.000 0.000 0.000 0.000 5.45 Unknown
06/24/2022 06:57 AM 73.40 62.06 54.86 100.04 70.52 52.0 Not Reported 1.34 NW 1.34 N 4.25 N Yes 0.000 Unknown 06/23/2022 11:58 PM 06/23/2022 11:58 PM 0.000 0.000 0.000 0.000 0.000 6.04 Unknown
06/24/2022 06:58 AM 73.40 62.06 54.86 100.04 70.52 52.0 Not Reported 1.34 NW 0.00 W 4.25 N x 0.000 Unknown 06/23/2022 11:58 PM 06/23/2022 11:58 PM 0.000 0.000 0.000 0.000 0.000 6.03 Unknown
06/24/2022 06:59 AM 73.40 62.06 55.04 100.04 70.52 52.0 Not Reported 1.34 NW 0.67 N 4.25 N x 0.000 Unknown 06/23/2022 11:58 PM 06/23/2022 11:58 PM 0.000 0.000 0.000 0.000 0.000 6.40 Unknown
06/24/2022 07:00 AM 73.40 61.88 54.86 100.04 70.52 52.0 Not Reported 1.34 NW 3.58 NW 4.25 N Yes 0.000 Unknown 06/24/2022 12:00 AM 06/24/2022 12:00 AM 0.000 0.000 0.000 0.000 0.000 6.82 Unknown
06/24/2022 07:01 AM 73.40 61.70 54.14 100.04 70.52 51.0 Not Reported 1.34 NW 1.34 NW 4.25 N Yes 0.000 Unknown 06/24/2022 12:00 AM 06/24/2022 12:00 AM 0.000 0.000 0.000 0.000 0.000 6.61 Unknown
06/24/2022 07:02 AM 73.40 61.70 54.50 100.04 70.52 51.0 Not Reported 1.34 NW 0.00 N 4.25 N x 0.000 Unknown 06/24/2022 12:02 AM 06/24/2022 12:02 AM 0.000 0.000 0.000 0.000 0.000 6.37 Unknown
06/24/2022 07:03 AM 73.22 61.70 54.14 100.04 70.52 51.0 Not Reported 1.34 NW 1.57 W 4.25 N x 0.000 Unknown 06/24/2022 12:02 AM 06/24/2022 12:02 AM 0.000 0.000 0.000 0.000 0.000 6.88 Unknown
06/24/2022 07:04 AM 73.40 62.06 54.68 100.04 70.52 51.0 Not Reported 1.34 NW 1.34 W 4.25 N x 0.000 Unknown 06/24/2022 12:02 AM 06/24/2022 12:02 AM 0.000 0.000 0.000 0.000 0.000 6.12 Unknown
06/24/2022 07:05 AM 73.58 62.06 54.68 100.04 70.52 51.0 Not Reported 1.34 NW 0.89 N 4.25 N x 0.000 Unknown 06/24/2022 12:04 AM 06/24/2022 12:04 AM 0.000 0.000 0.000 0.000 0.000 6.49 Unknown
06/24/2022 07:06 AM 73.58 62.06 54.68 100.04 70.52 51.0 Not Reported 1.12 NW 1.12 NE 3.58 N x 0.000 Unknown 06/24/2022 12:06 AM 06/24/2022 12:06 AM 0.000 0.000 0.000 0.000 0.000 6.45 Unknown
06/24/2022 07:07 AM 73.58 62.06 54.50 100.04 70.52 51.0 Not Reported 1.12 NW 1.34 N 3.58 N x 0.000 Unknown 06/24/2022 12:06 AM 06/24/2022 12:06 AM 0.000 0.000 0.000 0.000 0.000 6.15 Unknown
06/24/2022 07:08 AM 73.58 62.06 54.68 100.04 70.52 51.0 Not Reported 1.12 NW 1.34 N 3.58 N x 0.000 Unknown 06/24/2022 12:06 AM 06/24/2022 12:06 AM 0.000 0.000 0.000 0.000 0.000 6.53 Unknown
06/24/2022 07:09 AM 73.76 62.06 54.86 100.04 70.52 51.0 Not Reported 1.12 NW 0.00 NW 3.58 N x 0.000 Unknown 06/24/2022 12:06 AM 06/24/2022 12:06 AM 0.000 0.000 0.000 0.000 0.000 6.26 Unknown
06/24/2022 07:10 AM 73.76 62.06 54.68 100.04 70.52 51.0 Not Reported 1.12 NW 0.00 NW 3.58 N x 0.000 Unknown 06/24/2022 12:10 AM 06/24/2022 12:10 AM 0.000 0.000 0.000 0.000 0.000 6.46 Unknown
06/24/2022 07:11 AM 73.94 62.24 55.04 100.04 70.52 51.0 Not Reported 1.12 NW 0.67 W 3.58 N x 0.000 Unknown 06/24/2022 12:10 AM 06/24/2022 12:10 AM 0.000 0.000 0.000 0.000 0.000 6.11 Unknown
06/24/2022 07:12 AM 74.12 62.24 54.86 100.04 70.52 51.0 Not Reported 1.12 NW 0.67 NW 3.58 N x 0.000 Unknown 06/24/2022 12:10 AM 06/24/2022 12:10 AM 0.000 0.000 0.000 0.000 0.000 6.24 Unknown
06/24/2022 07:13 AM 74.30 62.42 55.04 100.04 70.52 51.0 Not Reported 1.12 NW 0.00 NW 3.58 N x 0.000 Unknown 06/24/2022 12:10 AM 06/24/2022 12:10 AM 0.000 0.000 0.000 0.000 0.000 6.28 Unknown
06/24/2022 07:14 AM 74.48 62.42 54.86 100.04 70.52 50.0 Not Reported 1.12 NW 2.46 NW 3.58 N Yes 0.000 Unknown 06/24/2022 12:15 AM   0.000 0.000 0.000 0.000 0.000 6.29 Unknown
06/24/2022 07:15 AM 74.66 62.42 54.86 100.04 70.52 49.0 Not Reported 1.12 NW 1.57 NW 3.58 N x 0.000 Unknown 06/24/2022 12:15 AM 06/24/2022 12:15 AM 0.000 0.000 0.000 0.000 0.000 6.36 Unknown
06/24/2022 07:16 AM 74.66 62.60 55.04 100.04 70.52 50.0 Not Reported 1.12 NW 0.67 NW 3.58 N x 0.000 Unknown 06/24/2022 12:15 AM 06/24/2022 12:15 AM 0.000 0.000 0.000 0.000 0.000 6.28 Unknown
06/24/2022 07:17 AM 74.84 62.60 55.22 100.04 70.52 50.0 Not Reported 1.12 NW 1.57 NW 3.58 N x 0.000 Unknown 06/24/2022 12:17 AM 06/24/2022 12:17 AM 0.000 0.000 0.000 0.000 0.000 5.95 Unknown
06/24/2022 07:18 AM 74.66 62.42 54.68 100.04 70.52 49.0 Not Reported 1.12 NW 1.12 NW 3.58 N x 0.000 Unknown 06/24/2022 12:17 AM 06/24/2022 12:17 AM 0.000 0.000 0.000 0.000 0.000 6.44 Unknown
06/24/2022 07:19 AM 74.84 62.42 54.86 100.04 70.52 49.0 Not Reported 1.12 NW 0.45 W 3.58 N x 0.000 Unknown 06/24/2022 12:19 AM 06/24/2022 12:19 AM 0.000 0.000 0.000 0.000 0.000 5.94 Unknown
06/24/2022 07:20 AM 75.02 62.78 55.22 100.04 70.52 50.0 Not Reported 0.89 NW 1.12 W 4.03 NW x 0.000 Unknown 06/24/2022 12:19 AM 06/24/2022 12:19 AM 0.000 0.000 0.000 0.000 0.000 6.44 Unknown
06/24/2022 07:21 AM 75.02 62.78 55.40 100.04 70.52 50.0 Not Reported 0.89 NW 0.00 N 4.03 NW x 0.000 Unknown 06/24/2022 12:19 AM 06/24/2022 12:19 AM 0.000 0.000 0.000 0.000 0.000 6.99 Unknown
06/24/2022 07:22 AM 75.02 62.96 55.40 100.04 70.52 50.0 Not Reported 0.89 NW 0.22 N 4.03 NW x 0.000 Unknown 06/24/2022 12:21 AM 06/24/2022 12:21 AM 0.000 0.000 0.000 0.000 0.000 6.23 Unknown
06/24/2022 07:23 AM 75.20 62.78 55.40 100.04 70.52 50.0 Not Reported 0.89 NW 1.79 W 4.03 NW Yes 0.000 Unknown 06/24/2022 12:23 AM   0.000 0.000 0.000 0.000 0.000 6.45 Unknown
06/24/2022 07:24 AM 75.20 62.78 54.68 100.04 70.52 48.0 Not Reported 0.89 NW 1.12 W 4.03 NW x 0.000 Unknown 06/24/2022 12:23 AM 06/24/2022 12:23 AM 0.000 0.000 0.000 0.000 0.000 6.64 Unknown
06/24/2022 07:25 AM 75.56 62.78 54.86 100.04 70.52 48.0 Not Reported 0.89 NW 1.12 W 4.03 NW x 0.000 Unknown 06/24/2022 12:25 AM 06/24/2022 12:25 AM 0.000 0.000 0.000 0.000 0.000 7.34 Unknown
06/24/2022 07:26 AM 75.56 62.78 54.68 100.04 70.52 48.0 Not Reported 0.89 NW 1.57 NW 4.03 NW x 0.000 Unknown 06/24/2022 12:25 AM 06/24/2022 12:25 AM 0.000 0.000 0.000 0.000 0.000 5.99 Unknown
06/24/2022 07:27 AM 75.74 62.78 54.68 100.04 70.52 48.0 Not Reported 0.89 NW 1.34 W 4.03 NW x 0.000 Unknown 06/24/2022 12:25 AM 06/24/2022 12:25 AM 0.000 0.000 0.000 0.000 0.000 6.17 Unknown
06/24/2022 07:28 AM 75.92 62.96 55.04 100.04 70.52 48.0 Not Reported 0.89 NW 1.34 W 4.03 NW x 0.000 Unknown 06/24/2022 12:28 AM 06/24/2022 12:28 AM 0.000 0.000 0.000 0.000 0.000 6.72 Unknown
06/24/2022 07:29 AM 76.10 63.14 54.86 100.04 70.52 47.0 Not Reported 0.89 NW 1.34 W 4.03 NW x 0.000 Unknown 06/24/2022 12:28 AM 06/24/2022 12:28 AM 0.000 0.000 0.000 0.000 0.000 6.10 Unknown
06/24/2022 07:30 AM 76.28 62.96 54.68 100.04 70.52 47.0 Not Reported 0.89 NW 1.57 W 4.03 NW Yes 0.000 Unknown 06/24/2022 12:30 AM   0.000 0.000 0.000 0.000 0.000 7.13 Unknown
06/24/2022 07:31 AM 76.46 63.14 55.04 100.04 70.52 47.0 Not Reported 0.89 NW 0.45 NW 4.03 NW Yes 0.000 Unknown 06/24/2022 12:30 AM 06/24/2022 12:30 AM 0.000 0.000 0.000 0.000 0.000 6.64 Unknown
06/24/2022 07:32 AM 76.46 63.50 55.40 100.04 70.52 48.0 Not Reported 0.89 NW 0.67 W 4.03 NW x 0.000 Unknown 06/24/2022 12:32 AM 06/24/2022 12:32 AM 0.000 0.000 0.000 0.000 0.000 6.47 Unknown
06/24/2022 07:33 AM 76.82 63.32 55.58 100.04 70.52 47.0 Not Reported 0.89 NW 1.57 N 4.03 NW x 0.000 Unknown 06/24/2022 12:32 AM 06/24/2022 12:32 AM 0.000 0.000 0.000 0.000 0.000 6.57 Unknown
06/24/2022 07:34 AM 76.64 63.50 55.76 100.04 70.52 48.0 Not Reported 1.12 NW 3.58 N 3.36 NE x 0.000 Unknown 06/24/2022 12:32 AM 06/24/2022 12:32 AM 0.000 0.000 0.000 0.000 0.000 7.32 Unknown
06/24/2022 07:35 AM 76.64 63.50 55.58 100.04 70.52 48.0 Not Reported 1.12 NW 0.89 N 3.36 NE x 0.000 Unknown 06/24/2022 12:34 AM 06/24/2022 12:34 AM 0.000 0.000 0.000 0.000 0.000 5.98 Unknown
06/24/2022 07:36 AM 76.64 63.50 55.22 100.04 70.52 47.0 Not Reported 1.12 NW 1.57 NW 3.36 NE x 0.000 Unknown 06/24/2022 12:36 AM 06/24/2022 12:36 AM 0.000 0.000 0.000 0.000 0.000 6.91 Unknown
06/24/2022 07:37 AM 76.82 63.50 55.40 100.04 70.52 47.0 Not Reported 1.12 NW 0.00 NW 3.36 NE x 0.000 Unknown 06/24/2022 12:36 AM 06/24/2022 12:36 AM 0.000 0.000 0.000 0.000 0.000 6.72 Unknown
06/24/2022 07:38 AM 76.82 63.32 55.04 100.04 70.52 46.0 Not Reported 1.12 NW 0.22 W 3.36 NE x 0.000 Unknown 06/24/2022 12:36 AM 06/24/2022 12:36 AM 0.000 0.000 0.000 0.000 0.000 6.15 Unknown
06/24/2022 07:39 AM 77.00 63.50 55.22 100.04 70.52 46.0 Not Reported 1.12 NW 0.45 W 3.36 NE x 0.000 Unknown 06/24/2022 12:38 AM 06/24/2022 12:38 AM 0.000 0.000 0.000 0.000 0.000 7.31 Unknown
06/24/2022 07:40 AM 77.18 63.50 55.22 100.04 70.52 46.0 Not Reported 1.12 NW 0.89 SW 3.36 NE x 0.000 Unknown 06/24/2022 12:38 AM 06/24/2022 12:40 AM 0.000 0.000 0.000 0.000 0.000 6.06 Unknown
06/24/2022 07:41 AM 77.18 63.68 55.22 100.04 70.52 46.0 Not Reported 1.12 NW 0.89 W 3.36 NE x 0.000 Unknown 06/24/2022 12:38 AM 06/24/2022 12:40 AM 0.000 0.000 0.000 0.000 0.000 6.02 Unknown
06/24/2022 07:42 AM 77.54 63.68 55.58 100.04 70.52 46.0 Not Reported 1.12 NW 0.22 W 3.36 NE x 0.000 Unknown 06/24/2022 12:38 AM 06/24/2022 12:40 AM 0.000 0.000 0.000 0.000 0.000 5.90 Unknown
06/24/2022 07:43 AM 77.54 63.86 55.40 100.04 70.52 46.0 Not Reported 1.12 NW 0.00 NW 3.36 NE x 0.000 Unknown 06/24/2022 12:38 AM 06/24/2022 12:40 AM 0.000 0.000 0.000 0.000 0.000 7.16 Unknown
06/24/2022 07:44 AM 77.72 63.86 55.76 100.04 70.52 46.0 Not Reported 1.12 NW 0.00 NW 3.36 NE x 0.000 Unknown 06/24/2022 12:38 AM 06/24/2022 12:40 AM 0.000 0.000 0.000 0.000 0.000 6.62 Unknown
06/24/2022 07:45 AM 77.72 64.04 55.76 100.04 70.52 46.0 Not Reported 1.12 NW 0.67 NW 3.36 NE Yes 0.000 Unknown 06/24/2022 12:45 AM 06/24/2022 12:45 AM 0.000 0.000 0.000 0.000 0.000 5.89 Unknown
06/24/2022 07:46 AM 77.90 64.22 55.76 100.04 70.52 46.0 Not Reported 1.12 NW 0.00 NW 3.36 NE x 0.000 Unknown 06/24/2022 12:45 AM 06/24/2022 12:45 AM 0.000 0.000 0.000 0.000 0.000 6.92 Unknown
06/24/2022 07:47 AM 77.90 64.22 55.76 100.04 70.52 46.0 Not Reported 1.12 NW 0.22 SW 3.36 NE x 0.000 Unknown 06/24/2022 12:47 AM 06/24/2022 12:47 AM 0.000 0.000 0.000 0.000 0.000 6.90 Unknown
06/24/2022 07:48 AM 77.90 63.86 55.40 100.04 70.52 45.0 Not Reported 0.67 NW 0.22 N 3.58 N x 0.000 Unknown 06/24/2022 12:47 AM 06/24/2022 12:47 AM 0.000 0.000 0.000 0.000 0.000 6.56 Unknown
06/24/2022 07:49 AM 77.72 63.86 55.22 100.04 70.52 45.0 Not Reported 0.67 NW 2.01 N 3.58 N x 0.000 Unknown 06/24/2022 12:49 AM 06/24/2022 12:49 AM 0.000 0.000 0.000 0.000 0.000 6.93 Unknown
06/24/2022 07:50 AM 77.90 63.68 54.86 100.04 70.52 44.0 Not Reported 0.67 NW 0.00 NW 3.58 N x 0.000 Unknown 06/24/2022 12:49 AM 06/24/2022 12:49 AM 0.000 0.000 0.000 0.000 0.000 6.95 Unknown
06/24/2022 07:51 AM 78.08 63.68 54.86 100.04 70.52 44.0 Not Reported 0.67 NW 0.45 N 3.58 N x 0.000 Unknown 06/24/2022 12:51 AM 06/24/2022 12:51 AM 0.000 0.000 0.000 0.000 0.000 5.81 Unknown
06/24/2022 07:52 AM 78.26 63.86 55.22 100.04 70.52 45.0 Not Reported 0.67 NW 1.79 NW 3.58 N x 0.000 Unknown 06/24/2022 12:51 AM 06/24/2022 12:51 AM 0.000 0.000 0.000 0.000 0.000 6.51 Unknown
06/24/2022 07:53 AM 78.44 64.04 55.40 100.04 70.52 44.0 Not Reported 0.67 NW 4.47 N 3.58 N x 0.000 Unknown 06/24/2022 12:53 AM 06/24/2022 12:53 AM 0.000 0.000 0.000 0.000 0.000 7.14 Unknown
06/24/2022 07:54 AM 78.44 64.04 55.40 100.04 70.52 45.0 Not Reported 0.67 NW 1.79 W 3.58 N x 0.000 Unknown 06/24/2022 12:53 AM 06/24/2022 12:53 AM 0.000 0.000 0.000 0.000 0.000 6.12 Unknown
06/24/2022 07:55 AM 78.62 64.04 55.04 100.04 70.52 44.0 Not Reported 0.67 NW 1.79 NW 3.58 N x 0.000 Unknown 06/24/2022 12:53 AM 06/24/2022 12:53 AM 0.000 0.000 0.000 0.000 0.000 7.30 Unknown
06/24/2022 07:56 AM 78.62 64.04 55.22 100.04 70.52 44.0 Not Reported 0.67 NW 0.89 NE 3.58 N Yes 0.000 Unknown 06/24/2022 12:55 AM 06/24/2022 12:55 AM 0.000 0.000 0.000 0.000 0.000 7.27 Unknown
06/24/2022 07:57 AM 78.62 63.86 54.86 100.04 70.52 43.0 Not Reported 0.67 NW 1.34 NW 3.58 N x 0.000 Unknown 06/24/2022 12:55 AM 06/24/2022 12:55 AM 0.000 0.000 0.000 0.000 0.000 6.49 Unknown
06/24/2022 07:58 AM 78.80 64.22 55.22 100.04 70.52 43.0 Not Reported 0.67 NW 0.00 NW 3.58 N x 0.000 Unknown 06/24/2022 12:57 AM 06/24/2022 12:57 AM 0.000 0.000 0.000 0.000 0.000 7.28 Unknown
06/24/2022 07:59 AM 79.16 64.04 54.68 100.04 70.52 43.0 Not Reported 0.67 NW 0.89 W 3.58 N Yes 0.000 Unknown 06/24/2022 01:00 AM   0.000 0.000 0.000 0.000 0.000 7.21 Unknown
06/24/2022 08:00 AM 79.52 64.04 54.68 100.04 70.52 42.0 Not Reported 0.67 NW 0.45 W 3.58 N x 0.000 Unknown 06/24/2022 01:00 AM 06/24/2022 01:00 AM 0.000 0.000 0.000 0.000 0.000 6.55 Unknown
06/24/2022 08:01 AM 79.52 64.04 54.50 100.04 70.52 42.0 Not Reported 0.67 NW 0.67 W 3.58 N Yes 0.000 Unknown 06/24/2022 01:00 AM 06/24/2022 01:00 AM 0.000 0.000 0.000 0.000 0.000 6.81 Unknown
06/24/2022 08:02 AM 79.88 64.40 54.86 100.04 70.52 42.0 Not Reported 0.89 NW 0.00 W 4.47 N x 0.000 Unknown 06/24/2022 01:02 AM 06/24/2022 01:02 AM 0.000 0.000 0.000 0.000 0.000 6.17 Unknown
06/24/2022 08:03 AM 79.88 64.40 55.04 100.04 70.52 42.0 Not Reported 0.89 NW 0.67 NW 4.47 N Yes 0.000 Unknown 06/24/2022 01:02 AM 06/24/2022 01:02 AM 0.000 0.000 0.000 0.000 0.000 6.42 Unknown
06/24/2022 08:04 AM 80.24 64.40 55.04 100.04 70.52 42.0 Not Reported 0.89 NW 0.00 W 4.47 N x 0.000 Unknown 06/24/2022 01:04 AM 06/24/2022 01:04 AM 0.000 0.000 0.000 0.000 0.000 7.38 Unknown
06/24/2022 08:05 AM 80.42 64.76 55.58 100.04 70.52 42.0 Not Reported 0.89 NW 0.89 W 4.47 N x 0.000 Unknown 06/24/2022 01:04 AM 06/24/2022 01:04 AM 0.000 0.000 0.000 0.000 0.000 7.75 Unknown
06/24/2022 08:06 AM 80.42 64.58 55.22 100.04 70.52 41.0 Not Reported 0.89 NW 0.00 W 4.47 N x 0.000 Unknown 06/24/2022 01:04 AM 06/24/2022 01:04 AM 0.000 0.000 0.000 0.000 0.000 7.39 Unknown
06/24/2022 08:07 AM 80.60 64.58 55.04 100.04 70.52 41.0 Not Reported 0.89 NW 1.12 SW 4.47 N x 0.000 Unknown 06/24/2022 01:04 AM 06/24/2022 01:04 AM 0.000 0.000 0.000 0.000 0.000 6.33 Unknown
06/24/2022 08:08 AM 80.60 64.76 55.22 100.04 70.52 41.0 Not Reported 0.89 NW 1.34 SW 4.47 N x 0.000 Unknown 06/24/2022 01:04 AM 06/24/2022 01:04 AM 0.000 0.000 0.000 0.000 0.000 5.84 Unknown
06/24/2022 08:09 AM 80.60 64.94 55.76 100.04 70.52 42.0 Not Reported 0.89 NW 0.00 SW 4.47 N x 0.000 Unknown 06/24/2022 01:04 AM 06/24/2022 01:04 AM 0.000 0.000 0.000 0.000 0.000 7.17 Unknown
06/24/2022 08:10 AM 80.60 64.94 55.76 100.04 70.52 42.0 Not Reported 0.89 NW 0.00 SE 4.47 N x 0.000 Unknown 06/24/2022 01:04 AM 06/24/2022 01:04 AM 0.000 0.000 0.000 0.000 0.000 6.86 Unknown
06/24/2022 08:11 AM 80.78 65.12 55.76 100.04 70.52 42.0 Not Reported 0.89 NW 0.45 E 4.47 N x 0.000 Unknown 06/24/2022 01:04 AM 06/24/2022 01:04 AM 0.000 0.000 0.000 0.000 0.000 6.20 Unknown
06/24/2022 08:12 AM 80.96 64.94 55.58 100.04 70.52 41.0 Not Reported 0.89 NW 2.91 N 4.47 N x 0.000 Unknown 06/24/2022 01:04 AM 06/24/2022 01:04 AM 0.000 0.000 0.000 0.000 0.000 4.57 Unknown
06/24/2022 08:13 AM 80.78 65.12 55.76 100.04 70.52 42.0 Not Reported 0.89 NW 2.24 N 4.47 N x 0.000 Unknown 06/24/2022 01:04 AM 06/24/2022 01:04 AM 0.000 0.000 0.000 0.000 0.000 4.99 Unknown
06/24/2022 08:14 AM 80.96 65.12 55.76 100.04 70.52 42.0 Not Reported 0.89 NW 0.00 SE 4.47 N x 0.000 Unknown 06/24/2022 01:04 AM 06/24/2022 01:04 AM 0.000 0.000 0.000 0.000 0.000 5.10 Unknown
06/24/2022 08:15 AM 80.96 64.94 55.58 100.04 70.52 41.0 Not Reported 0.89 NW 1.12 S 4.47 N x 0.000 Unknown 06/24/2022 01:04 AM 06/24/2022 01:04 AM 0.000 0.000 0.000 0.000 0.000 5.78 Unknown
06/24/2022 08:16 AM 81.14 65.12 55.76 100.04 70.52 41.0 Not Reported 0.45 S 0.00 S 2.91 NE x 0.000 Unknown 06/24/2022 01:04 AM 06/24/2022 01:04 AM 0.000 0.000 0.000 0.000 0.000 5.58 Unknown
06/24/2022 08:17 AM 81.14 65.12 55.58 100.04 70.52 41.0 Not Reported 0.45 S 5.37 NE 2.91 NE x 0.000 Unknown 06/24/2022 01:04 AM 06/24/2022 01:04 AM 0.000 0.000 0.000 0.000 0.000 5.49 Unknown
06/24/2022 08:18 AM 81.32 64.94 55.22 100.04 70.52 40.0 Not Reported 0.45 S 1.57 E 2.91 NE x 0.000 Unknown 06/24/2022 01:04 AM 06/24/2022 01:04 AM 0.000 0.000 0.000 0.000 0.000 5.69 Unknown
06/24/2022 08:19 AM 81.32 65.12 55.40 100.04 70.52 41.0 Not Reported 0.45 S 0.00 E 2.91 NE x 0.000 Unknown 06/24/2022 01:04 AM 06/24/2022 01:04 AM 0.000 0.000 0.000 0.000 0.000 5.46 Unknown
06/24/2022 08:20 AM 81.32 65.30 55.58 100.04 70.52 41.0 Not Reported 0.45 S 1.12 E 2.91 NE x 0.000 Unknown 06/24/2022 01:04 AM 06/24/2022 01:04 AM 0.000 0.000 0.000 0.000 0.000 5.61 Unknown
06/24/2022 08:21 AM 81.14 64.94 55.22 100.04 70.52 40.0 Not Reported 0.45 S 2.46 E 2.91 NE x 0.000 Unknown 06/24/2022 01:21 AM 06/24/2022 01:21 AM 0.000 0.000 0.000 0.000 0.000 4.42 Unknown
06/24/2022 08:22 AM 81.50 65.12 55.04 100.04 70.52 40.0 Not Reported 0.45 S 0.89 SE 2.91 NE x 0.000 Unknown 06/24/2022 01:21 AM 06/24/2022 01:21 AM 0.000 0.000 0.000 0.000 0.000 4.92 Unknown
06/24/2022 08:23 AM 81.68 64.94 55.04 100.04 70.52 39.0 Not Reported 0.45 S 4.70 E 2.91 NE x 0.000 Unknown 06/24/2022 01:23 AM 06/24/2022 01:23 AM 0.000 0.000 0.000 0.000 0.000 5.27 Unknown
06/24/2022 08:24 AM 81.68 64.94 55.04 100.04 70.52 39.0 Not Reported 0.45 S 2.01 E 2.91 NE x 0.000 Unknown 06/24/2022 01:23 AM 06/24/2022 01:23 AM 0.000 0.000 0.000 0.000 0.000 5.82 Unknown
06/24/2022 08:25 AM 81.86 64.94 55.04 100.04 70.52 39.0 Not Reported 0.45 S 2.24 SE 2.91 NE x 0.000 Unknown 06/24/2022 01:23 AM 06/24/2022 01:23 AM 0.000 0.000 0.000 0.000 0.000 5.48 Unknown
06/24/2022 08:26 AM 81.68 65.12 55.22 100.04 70.52 39.0 Not Reported 0.45 S 0.89 SE 2.91 NE x 0.000 Unknown 06/24/2022 01:23 AM 06/24/2022 01:23 AM 0.000 0.000 0.000 0.000 0.000 5.67 Unknown
06/24/2022 08:27 AM 81.68 65.30 55.22 100.04 70.52 40.0 Not Reported 0.45 S 2.24 SE 2.91 NE x 0.000 Unknown 06/24/2022 01:27 AM 06/24/2022 01:27 AM 0.000 0.000 0.000 0.000 0.000 5.23 Unknown
06/24/2022 08:28 AM 82.22 65.48 55.58 100.04 70.52 39.0 Not Reported 0.45 S 1.12 E 2.91 NE x 0.000 Unknown 06/24/2022 01:27 AM 06/24/2022 01:27 AM 0.000 0.000 0.000 0.000 0.000 6.43 Unknown
06/24/2022 08:29 AM 82.58 65.48 55.22 100.04 70.52 39.0 Not Reported 0.45 S 3.13 E 2.91 NE x 0.000 Unknown 06/24/2022 01:27 AM 06/24/2022 01:27 AM 0.000 0.000 0.000 0.000 0.000 6.01 Unknown
06/24/2022 08:30 AM 82.58 65.66 55.40 100.04 70.52 39.0 Not Reported 1.57 E 0.67 E 5.59 NE x 0.000 Unknown 06/24/2022 01:27 AM 06/24/2022 01:27 AM 0.000 0.000 0.000 0.000 0.000 6.47 Unknown
06/24/2022 08:31 AM 83.12 65.66 55.40 100.04 70.52 38.0 Not Reported 1.57 E 0.45 NW 5.59 NE x 0.000 Unknown 06/24/2022 01:27 AM 06/24/2022 01:27 AM 0.000 0.000 0.000 0.000 0.000 6.83 Unknown
06/24/2022 08:32 AM 83.12 65.84 55.58 100.04 70.52 38.0 Not Reported 1.57 E 1.79 SE 5.59 NE x 0.000 Unknown 06/24/2022 01:27 AM 06/24/2022 01:27 AM 0.000 0.000 0.000 0.000 0.000 5.74 Unknown
06/24/2022 08:33 AM 83.30 66.20 55.94 100.04 70.52 39.0 Not Reported 1.57 E 1.34 S 5.59 NE x 0.000 Unknown 06/24/2022 01:27 AM 06/24/2022 01:27 AM 0.000 0.000 0.000 0.000 0.000 6.25 Unknown
06/24/2022 08:34 AM 83.48 65.84 55.22 100.04 70.52 37.0 Not Reported 1.57 E 0.67 S 5.59 NE x 0.000 Unknown 06/24/2022 01:27 AM 06/24/2022 01:27 AM 0.000 0.000 0.000 0.000 0.000 6.60 Unknown
06/24/2022 08:35 AM 83.84 65.66 54.86 100.04 70.52 37.0 Not Reported 1.57 E 3.58 SE 5.59 NE x 0.000 Unknown 06/24/2022 01:27 AM 06/24/2022 01:27 AM 0.000 0.000 0.000 0.000 0.000 5.88 Unknown
06/24/2022 08:36 AM 83.84 65.48 54.86 100.04 70.52 37.0 Not Reported 1.57 E 3.80 E 5.59 NE x 0.000 Unknown 06/24/2022 01:27 AM 06/24/2022 01:27 AM 0.000 0.000 0.000 0.000 0.000 7.15 Unknown
06/24/2022 08:37 AM 83.66 65.48 54.68 100.04 70.52 36.0 Not Reported 1.57 E 4.03 SE 5.59 NE x 0.000 Unknown 06/24/2022 01:27 AM 06/24/2022 01:27 AM 0.000 0.000 0.000 0.000 0.000 6.54 Unknown
06/24/2022 08:38 AM 83.84 65.48 54.86 100.04 70.52 37.0 Not Reported 1.57 E 4.47 S 5.59 NE x 0.000 Unknown 06/24/2022 01:27 AM 06/24/2022 01:27 AM 0.000 0.000 0.000 0.000 0.000 6.13 Unknown
06/24/2022 08:39 AM 83.84 65.48 54.50 100.04 70.52 36.0 Not Reported 1.57 E 4.03 SE 5.59 NE x 0.000 Unknown 06/24/2022 01:27 AM 06/24/2022 01:27 AM 0.000 0.000 0.000 0.000 0.000 6.35 Unknown
06/24/2022 08:40 AM 84.20 65.66 54.86 100.04 70.52 36.0 Not Reported 1.57 E 1.12 SE 5.59 NE x 0.000 Unknown 06/24/2022 01:40 AM 06/24/2022 01:40 AM 0.000 0.000 0.000 0.000 0.000 6.52 Unknown
06/24/2022 08:41 AM 84.38 65.66 54.68 100.04 70.52 36.0 Not Reported 1.57 E 1.12 SE 5.59 NE x 0.000 Unknown 06/24/2022 01:40 AM 06/24/2022 01:40 AM 0.000 0.000 0.000 0.000 0.000 7.46 Unknown
06/24/2022 08:42 AM 84.38 65.66 54.68 100.04 70.52 36.0 Not Reported 1.57 E 3.13 SE 5.59 NE x 0.000 Unknown 06/24/2022 01:42 AM 06/24/2022 01:42 AM 0.000 0.000 0.000 0.000 0.000 7.59 Unknown
06/24/2022 08:43 AM 84.56 65.84 54.68 100.04 70.52 35.0 Not Reported 1.57 E 1.57 S 5.59 NE x 0.000 Unknown 06/24/2022 01:42 AM 06/24/2022 01:42 AM 0.000 0.000 0.000 0.000 0.000 8.03 Unknown
06/24/2022 08:44 AM 84.74 66.20 55.22 100.04 70.52 36.0 Not Reported 2.24 SE 6.04 SE 6.71 S x 0.000 Unknown 06/24/2022 01:42 AM 06/24/2022 01:42 AM 0.000 0.000 0.000 0.000 0.000 7.03 Unknown
06/24/2022 08:45 AM 84.74 66.02 54.86 100.04 70.52 36.0 Not Reported 2.24 SE 5.59 SE 6.71 S x 0.000 Unknown 06/24/2022 01:42 AM 06/24/2022 01:42 AM 0.000 0.000 0.000 0.000 0.000 6.20 Unknown
06/24/2022 08:46 AM 84.74 65.84 54.68 100.04 70.52 35.0 Not Reported 2.24 SE 5.14 E 6.71 S x 0.000 Unknown 06/24/2022 01:44 AM 06/24/2022 01:44 AM 0.000 0.000 0.000 0.000 0.000 6.85 Unknown
06/24/2022 08:47 AM 84.74 66.02 55.22 100.04 70.52 36.0 Not Reported 2.24 SE 5.37 SE 6.71 S x 0.000 Unknown 06/24/2022 01:44 AM 06/24/2022 01:44 AM 0.000 0.000 0.000 0.000 0.000 7.42 Unknown
06/24/2022 08:48 AM 84.56 66.02 55.22 100.04 70.52 36.0 Not Reported 2.24 SE 4.70 SE 6.71 S x 0.000 Unknown 06/24/2022 01:44 AM 06/24/2022 01:44 AM 0.000 0.000 0.000 0.000 0.000 6.25 Unknown
06/24/2022 08:49 AM 84.38 66.02 55.22 100.04 70.52 36.0 Not Reported 2.24 SE 4.92 E 6.71 S x 0.000 Unknown 06/24/2022 01:44 AM 06/24/2022 01:44 AM 0.000 0.000 0.000 0.000 0.000 7.48 Unknown
06/24/2022 08:50 AM 84.56 66.02 55.22 100.04 70.52 36.0 Not Reported 2.24 SE 2.68 SE 6.71 S x 0.000 Unknown 06/24/2022 01:44 AM 06/24/2022 01:44 AM 0.000 0.000 0.000 0.000 0.000 6.88 Unknown
06/24/2022 08:51 AM 84.74 66.38 55.40 100.04 70.52 36.0 Not Reported 2.24 SE 2.91 NW 6.71 S x 0.000 Unknown 06/24/2022 01:44 AM 06/24/2022 01:44 AM 0.000 0.000 0.000 0.000 0.000 6.07 Unknown
06/24/2022 08:52 AM 84.74 66.20 55.40 100.04 70.52 36.0 Not Reported 2.24 SE 2.68 SE 6.71 S x 0.000 Unknown 06/24/2022 01:44 AM 06/24/2022 01:44 AM 0.000 0.000 0.000 0.000 0.000 6.94 Unknown
06/24/2022 08:53 AM 85.10 66.38 55.40 100.04 70.52 36.0 Not Reported 2.24 SE 4.70 E 6.71 S x 0.000 Unknown 06/24/2022 01:44 AM 06/24/2022 01:44 AM 0.000 0.000 0.000 0.000 0.000 6.35 Unknown
06/24/2022 08:54 AM 85.28 66.20 55.22 100.04 70.52 35.0 Not Reported 2.24 SE 3.58 S 6.71 S x 0.000 Unknown 06/24/2022 01:44 AM 06/24/2022 01:44 AM 0.000 0.000 0.000 0.000 0.000 6.92 Unknown
06/24/2022 08:55 AM 85.28 66.20 55.40 100.04 70.52 35.0 Not Reported 2.24 SE 1.79 E 6.71 S x 0.000 Unknown 06/24/2022 01:44 AM 06/24/2022 01:44 AM 0.000 0.000 0.000 0.000 0.000 5.63 Unknown
06/24/2022 08:56 AM 85.46 66.38 55.40 100.04 70.52 35.0 Not Reported 2.24 SE 5.37 SE 6.71 S x 0.000 Unknown 06/24/2022 01:44 AM 06/24/2022 01:44 AM 0.000 0.000 0.000 0.000 0.000 7.80 Unknown
06/24/2022 08:57 AM 85.46 66.38 55.58 100.04 70.52 36.0 Not Reported 2.24 SE 4.70 SE 6.71 S x 0.000 Unknown 06/24/2022 01:44 AM 06/24/2022 01:44 AM 0.000 0.000 0.000 0.000 0.000 8.04 Unknown
06/24/2022 08:58 AM 85.28 66.56 55.94 100.04 70.52 36.0 Not Reported 3.80 SE 3.13 N 7.83 SE x 0.000 Unknown 06/24/2022 01:44 AM 06/24/2022 01:44 AM 0.000 0.000 0.000 0.000 0.000 6.67 Unknown
06/24/2022 08:59 AM 85.46 66.56 55.76 100.04 70.52 36.0 Not Reported 3.80 SE 3.58 SE 7.83 SE x 0.000 Unknown 06/24/2022 01:44 AM 06/24/2022 01:44 AM 0.000 0.000 0.000 0.000 0.000 6.57 Unknown
06/24/2022 09:00 AM 85.64 66.74 55.94 100.04 70.52 36.0 Not Reported 3.80 SE 1.34 W 7.83 SE x 0.000 Unknown 06/24/2022 01:44 AM 06/24/2022 01:44 AM 0.000 0.000 0.000 0.000 0.000 7.25 Unknown
06/24/2022 09:01 AM 85.82 66.74 55.94 100.04 70.52 36.0 Not Reported 3.80 SE 6.04 SE 7.83 SE x 0.000 Unknown 06/24/2022 01:44 AM 06/24/2022 01:44 AM 0.000 0.000 0.000 0.000 0.000 7.02 Unknown
06/24/2022 09:02 AM 86.00 66.92 56.30 100.04 70.52 36.0 Not Reported 3.80 SE 3.80 E 7.83 SE x 0.000 Unknown 06/24/2022 02:01 AM 06/24/2022 02:01 AM 0.000 0.000 0.000 0.000 0.000 7.03 Unknown
06/24/2022 09:03 AM 85.82 67.10 56.48 100.04 70.52 36.0 Not Reported 3.80 SE 3.36 E 7.83 SE x 0.000 Unknown 06/24/2022 02:01 AM 06/24/2022 02:01 AM 0.000 0.000 0.000 0.000 0.000 7.13 Unknown
06/24/2022 09:04 AM 86.00 67.10 56.48 100.04 70.52 36.0 Not Reported 3.80 SE 2.24 S 7.83 SE x 0.000 Unknown 06/24/2022 02:04 AM 06/24/2022 02:04 AM 0.000 0.000 0.000 0.000 0.000 8.53 Unknown
06/24/2022 09:05 AM 86.00 67.28 56.66 100.04 70.52 36.0 Not Reported 3.80 SE 1.12 S 7.83 SE x 0.000 Unknown 06/24/2022 02:04 AM 06/24/2022 02:04 AM 0.000 0.000 0.000 0.000 0.000 5.60 Unknown
06/24/2022 09:06 AM 86.00 67.28 56.84 100.04 70.52 37.0 Not Reported 3.80 SE 0.67 NE 7.83 SE x 0.000 Unknown 06/24/2022 02:04 AM 06/24/2022 02:04 AM 0.000 0.000 0.000 0.000 0.000 7.12 Unknown
06/24/2022 09:07 AM 86.18 67.10 56.30 100.04 70.52 36.0 Not Reported 3.80 SE 3.58 SE 7.83 SE x 0.000 Unknown 06/24/2022 02:04 AM 06/24/2022 02:04 AM 0.000 0.000 0.000 0.000 0.000 6.23 Unknown
06/24/2022 09:08 AM 85.82 67.10 56.66 100.04 70.52 36.0 Not Reported 3.80 SE 4.92 S 7.83 SE x 0.000 Unknown 06/24/2022 02:04 AM 06/24/2022 02:04 AM 0.000 0.000 0.000 0.000 0.000 6.73 Unknown
06/24/2022 09:09 AM 86.00 67.28 56.84 100.04 70.52 37.0 Not Reported 3.80 SE 3.80 S 7.83 SE x 0.000 Unknown 06/24/2022 02:04 AM 06/24/2022 02:04 AM 0.000 0.000 0.000 0.000 0.000 7.62 Unknown
06/24/2022 09:10 AM 86.00 67.46 57.20 100.04 70.52 37.0 Not Reported 3.80 SE 3.13 SE 7.83 SE x 0.000 Unknown 06/24/2022 02:04 AM 06/24/2022 02:04 AM 0.000 0.000 0.000 0.000 0.000 6.66 Unknown
06/24/2022 09:11 AM 85.46 67.46 57.38 100.04 70.52 38.0 Not Reported 3.80 SE 2.46 S 7.83 SE x 0.000 Unknown 06/24/2022 02:04 AM 06/24/2022 02:04 AM 0.000 0.000 0.000 0.000 0.000 5.93 Unknown
06/24/2022 09:12 AM 85.64 67.64 57.38 100.04 70.52 38.0 Not Reported 2.91 SE 6.26 S 8.50 SE x 0.000 Unknown 06/24/2022 02:04 AM 06/24/2022 02:04 AM 0.000 0.000 0.000 0.000 0.000 6.44 Unknown
06/24/2022 09:13 AM 85.46 67.64 57.56 100.04 70.52 38.0 Not Reported 2.91 SE 2.91 SE 8.50 SE x 0.000 Unknown 06/24/2022 02:04 AM 06/24/2022 02:04 AM 0.000 0.000 0.000 0.000 0.000 7.17 Unknown
06/24/2022 09:14 AM 85.28 67.46 57.38 100.04 70.52 38.0 Not Reported 2.91 SE 6.26 S 8.50 SE x 0.000 Unknown 06/24/2022 02:04 AM 06/24/2022 02:04 AM 0.000 0.000 0.000 0.000 0.000 7.71 Unknown
06/24/2022 09:15 AM 85.28 67.46 57.74 100.04 70.52 39.0 Not Reported 2.91 SE 5.82 S 8.50 SE x 0.000 Unknown 06/24/2022 02:04 AM 06/24/2022 02:04 AM 0.000 0.000 0.000 0.000 0.000 6.35 Unknown
06/24/2022 09:16 AM 85.46 67.46 57.56 100.04 70.52 38.0 Not Reported 2.91 SE 6.04 SE 8.50 SE x 0.000 Unknown 06/24/2022 02:04 AM 06/24/2022 02:04 AM 0.000 0.000 0.000 0.000 0.000 8.42 Unknown
06/24/2022 09:17 AM 85.46 67.64 57.92 100.04 70.52 39.0 Not Reported 2.91 SE 6.71 S 8.50 SE x 0.000 Unknown 06/24/2022 02:04 AM 06/24/2022 02:04 AM 0.000 0.000 0.000 0.000 0.000 7.08 Unknown
06/24/2022 09:18 AM 85.28 67.82 57.92 100.04 70.52 39.0 Not Reported 2.91 SE 5.14 S 8.50 SE x 0.000 Unknown 06/24/2022 02:04 AM 06/24/2022 02:04 AM 0.000 0.000 0.000 0.000 0.000 7.15 Unknown
06/24/2022 09:19 AM 85.64 67.64 57.92 100.04 70.52 39.0 Not Reported 2.91 SE 5.37 SE 8.50 SE x 0.000 Unknown 06/24/2022 02:04 AM 06/24/2022 02:04 AM 0.000 0.000 0.000 0.000 0.000 6.40 Unknown
06/24/2022 09:20 AM 85.64 67.46 57.20 100.04 70.52 38.0 Not Reported 2.91 SE 2.01 SE 8.50 SE x 0.000 Unknown 06/24/2022 02:04 AM 06/24/2022 02:04 AM 0.000 0.000 0.000 0.000 0.000 6.99 Unknown
06/24/2022 09:21 AM 85.64 67.28 57.38 100.04 70.52 38.0 Not Reported 2.91 SE 8.05 SE 8.50 SE x 0.000 Unknown 06/24/2022 02:04 AM 06/24/2022 02:04 AM 0.000 0.000 0.000 0.000 0.000 6.73 Unknown
06/24/2022 09:22 AM 85.46 67.46 57.38 100.04 70.52 38.0 Not Reported 2.91 SE 4.47 S 8.50 SE x 0.000 Unknown 06/24/2022 02:04 AM 06/24/2022 02:04 AM 0.000 0.000 0.000 0.000 0.000 5.67 Unknown
06/24/2022 09:23 AM 86.00 67.64 57.56 100.04 70.52 38.0 Not Reported 2.91 SE 8.72 SE 8.50 SE x 0.000 Unknown 06/24/2022 02:04 AM 06/24/2022 02:04 AM 0.000 0.000 0.000 0.000 0.000 6.88 Unknown
06/24/2022 09:24 AM 86.18 67.46 57.38 100.04 70.52 37.0 Not Reported 2.91 SE 3.13 E 8.50 SE x 0.000 Unknown 06/24/2022 02:04 AM 06/24/2022 02:04 AM 0.000 0.000 0.000 0.000 0.000 6.37 Unknown
06/24/2022 09:25 AM 86.54 68.00 57.92 100.04 70.52 37.0 Not Reported 2.91 SE 1.57 S 8.50 SE x 0.000 Unknown 06/24/2022 02:04 AM 06/24/2022 02:04 AM 0.000 0.000 0.000 0.000 0.000 5.98 Unknown
06/24/2022 09:26 AM 86.54 68.18 58.28 100.04 70.52 38.0 Not Reported 4.70 SE 3.13 S 9.62 SE x 0.000 Unknown 06/24/2022 02:04 AM 06/24/2022 02:04 AM 0.000 0.000 0.000 0.000 0.000 7.16 Unknown
06/24/2022 09:27 AM 86.54 68.00 57.92 100.04 70.52 37.0 Not Reported 4.70 SE 4.03 S 9.62 SE x 0.000 Unknown 06/24/2022 02:04 AM 06/24/2022 02:04 AM 0.000 0.000 0.000 0.000 0.000 7.28 Unknown
06/24/2022 09:28 AM 86.18 67.82 57.74 100.04 70.52 38.0 Not Reported 4.70 SE 4.92 S 9.62 SE x 0.000 Unknown 06/24/2022 02:27 AM 06/24/2022 02:27 AM 0.000 0.000 0.000 0.000 0.000 8.50 Unknown
06/24/2022 09:29 AM 86.18 67.82 57.92 100.04 70.52 38.0 Not Reported 4.70 SE 2.24 SW 9.62 SE x 0.000 Unknown 06/24/2022 02:27 AM 06/24/2022 02:29 AM 0.000 0.000 0.000 0.000 0.000 7.58 Unknown
06/24/2022 09:30 AM 86.36 68.00 58.28 100.04 70.52 38.0 Not Reported 4.70 SE 5.14 S 9.62 SE x 0.000 Unknown 06/24/2022 02:29 AM 06/24/2022 02:29 AM 0.000 0.000 0.000 0.000 0.000 7.49 Unknown
06/24/2022 09:31 AM 86.18 68.54 58.82 100.04 70.52 39.0 Not Reported 4.70 SE 4.25 S 9.62 SE x 0.000 Unknown 06/24/2022 02:29 AM 06/24/2022 02:31 AM 0.000 0.000 0.000 0.000 0.000 6.74 Unknown
06/24/2022 09:32 AM 86.54 68.18 57.92 100.04 70.52 37.0 Not Reported 4.70 SE 0.45 S 9.62 SE x 0.000 Unknown 06/24/2022 02:29 AM 06/24/2022 02:31 AM 0.000 0.000 0.000 0.000 0.000 4.97 Unknown
06/24/2022 09:33 AM 87.08 68.18 57.92 100.04 70.52 37.0 Not Reported 4.70 SE 2.24 SE 9.62 SE x 0.000 Unknown 06/24/2022 02:31 AM 06/24/2022 02:31 AM 0.000 0.000 0.000 0.000 0.000 6.27 Unknown
06/24/2022 09:34 AM 87.08 68.36 58.28 100.04 70.52 37.0 Not Reported 4.70 SE 2.68 SE 9.62 SE x 0.000 Unknown 06/24/2022 02:31 AM 06/24/2022 02:31 AM 0.000 0.000 0.000 0.000 0.000 6.76 Unknown
06/24/2022 09:35 AM 86.90 68.36 58.64 100.04 70.52 38.0 Not Reported 4.70 SE 4.03 SE 9.62 SE x 0.000 Unknown 06/24/2022 02:33 AM 06/24/2022 02:33 AM 0.000 0.000 0.000 0.000 0.000 7.10 Unknown
06/24/2022 09:36 AM 86.54 68.90 59.36 100.04 70.52 39.0 Not Reported 4.70 SE 5.82 SE 9.62 SE x 0.000 Unknown 06/24/2022 02:36 AM 06/24/2022 02:36 AM 0.000 0.000 0.000 0.000 0.000 6.32 Unknown
06/24/2022 09:37 AM 86.72 68.72 59.54 100.04 70.52 39.0 Not Reported 4.70 SE 1.79 S 9.62 SE x 0.000 Unknown 06/24/2022 02:36 AM 06/24/2022 02:36 AM 0.000 0.000 0.000 0.000 0.000 6.15 Unknown
06/24/2022 09:38 AM 86.90 69.08 59.72 100.04 70.52 40.0 Not Reported 4.70 SE 3.58 SE 9.62 SE x 0.000 Unknown 06/24/2022 02:36 AM 06/24/2022 02:36 AM 0.000 0.000 0.000 0.000 0.000 6.45 Unknown
06/24/2022 09:39 AM 87.26 68.72 58.82 100.04 70.52 38.0 Not Reported 4.70 SE 4.47 S 9.62 SE x 0.000 Unknown 06/24/2022 02:36 AM 06/24/2022 02:36 AM 0.000 0.000 0.000 0.000 0.000 5.43 Unknown
06/24/2022 09:40 AM 87.44 68.90 59.18 100.04 70.52 38.0 Not Reported 3.58 S 6.71 S 8.28 S x 0.000 Unknown 06/24/2022 02:40 AM 06/24/2022 02:40 AM 0.000 0.000 0.000 0.000 0.000 6.41 Unknown
06/24/2022 09:41 AM 87.08 69.26 59.72 100.04 70.52 39.0 Not Reported 3.58 S 2.46 S 8.28 S x 0.000 Unknown 06/24/2022 02:40 AM 06/24/2022 02:40 AM 0.000 0.000 0.000 0.000 0.000 5.94 Unknown
06/24/2022 09:42 AM 86.54 68.72 59.54 100.04 70.52 40.0 Not Reported 3.58 S 2.91 SE 8.28 S x 0.000 Unknown 06/24/2022 02:40 AM 06/24/2022 02:40 AM 0.000 0.000 0.000 0.000 0.000 6.62 Unknown
06/24/2022 09:43 AM 86.00 68.54 59.54 100.04 70.52 40.0 Not Reported 3.58 S 2.46 SW 8.28 S x 0.000 Unknown 06/24/2022 02:40 AM 06/24/2022 02:40 AM 0.000 0.000 0.000 0.000 0.000 7.55 Unknown
06/24/2022 09:44 AM 86.00 68.90 60.08 100.04 70.52 41.0 Not Reported 3.58 S 6.49 S 8.28 S x 0.000 Unknown 06/24/2022 02:40 AM 06/24/2022 02:40 AM 0.000 0.000 0.000 0.000 0.000 7.17 Unknown
06/24/2022 09:45 AM 86.00 69.08 60.08 100.04 70.52 41.0 Not Reported 3.58 S 4.25 S 8.28 S x 0.000 Unknown 06/24/2022 02:44 AM 06/24/2022 02:44 AM 0.000 0.000 0.000 0.000 0.000 5.58 Unknown
06/24/2022 09:46 AM 86.00 68.72 59.36 100.04 70.52 40.0 Not Reported 3.58 S 3.58 S 8.28 S x 0.000 Unknown 06/24/2022 02:44 AM 06/24/2022 02:44 AM 0.000 0.000 0.000 0.000 0.000 7.04 Unknown
06/24/2022 09:47 AM 86.00 68.72 59.90 100.04 70.52 41.0 Not Reported 3.58 S 6.04 SW 8.28 S x 0.000 Unknown 06/24/2022 02:44 AM 06/24/2022 02:44 AM 0.000 0.000 0.000 0.000 0.000 5.92 Unknown
06/24/2022 09:48 AM 86.00 69.08 60.26 100.04 70.52 42.0 Not Reported 3.58 S 0.45 E 8.28 S x 0.000 Unknown 06/24/2022 02:44 AM 06/24/2022 02:44 AM 0.000 0.000 0.000 0.000 0.000 6.45 Unknown
06/24/2022 09:49 AM 86.18 68.72 59.72 100.04 70.52 40.0 Not Reported 3.58 S 1.12 E 8.28 S x 0.000 Unknown 06/24/2022 02:48 AM 06/24/2022 02:48 AM 0.000 0.000 0.000 0.000 0.000 5.68 Unknown
06/24/2022 09:50 AM 86.54 68.90 59.72 100.04 70.52 40.0 Not Reported 3.58 S 6.26 S 8.28 S x 0.000